<?xml version='1.0' encoding='UTF-8'?><gpx version="1.1" creator="JPX - https://github.com/jenetics/jpx" xmlns="http://www.topografix.com/GPX/1/1"><trk><trkseg><trkpt lat="43.31166400140597" lon="10.522917744370414"><ele>18.000000000000004</ele><time>2026-04-09T16:23:06.499Z</time></trkpt><trkpt lat="43.3117392809841" lon="10.522918005050355"><ele>18.0</ele><time>2026-04-09T16:23:12.499Z</time></trkpt><trkpt lat="43.31180688410959" lon="10.52289071064391"><ele>18.0</ele><time>2026-04-09T16:23:17.499Z</time></trkpt><trkpt lat="43.311861178615224" lon="10.522941835612073"><ele>18.0</ele><time>2026-04-09T16:23:19.499Z</time></trkpt><trkpt lat="43.311923455338714" lon="10.522918691349988"><ele>18.0</ele><time>2026-04-09T16:23:23Z</time></trkpt><trkpt lat="43.311982079420716" lon="10.522870615519466"><ele>18.000000000000004</ele><time>2026-04-09T16:23:28Z</time></trkpt><trkpt lat="43.31204887987242" lon="10.522883473603708"><ele>18.0</ele><time>2026-04-09T16:23:33Z</time></trkpt><trkpt lat="43.31212572272689" lon="10.52287115853152"><ele>18.000000000000004</ele><time>2026-04-09T16:23:39Z</time></trkpt><trkpt lat="43.31219269998797" lon="10.522899250153003"><ele>18.0</ele><time>2026-04-09T16:23:44Z</time></trkpt><trkpt lat="43.31225121817446" lon="10.522851581632326"><ele>18.0</ele><time>2026-04-09T16:23:48Z</time></trkpt><trkpt lat="43.31231136036129" lon="10.522791370579174"><ele>18.0</ele><time>2026-04-09T16:23:52Z</time></trkpt><trkpt lat="43.31233110025314" lon="10.52270326660398"><ele>18.0</ele><time>2026-04-09T16:23:56Z</time></trkpt><trkpt lat="43.31238874877301" lon="10.52262775301913"><ele>18.000000000000004</ele><time>2026-04-09T16:24:01Z</time></trkpt><trkpt lat="43.31243100650704" lon="10.522553498472123"><ele>18.0</ele><time>2026-04-09T16:24:05Z</time></trkpt><trkpt lat="43.312498524989316" lon="10.522500507163272"><ele>18.28571428571429</ele><time>2026-04-09T16:24:10Z</time></trkpt><trkpt lat="43.312562807086486" lon="10.522476344209803"><ele>18.571428571428573</ele><time>2026-04-09T16:24:19Z</time></trkpt><trkpt lat="43.31262749042351" lon="10.522452333847037"><ele>18.857142857142858</ele><time>2026-04-09T16:24:25Z</time></trkpt><trkpt lat="43.31270388632034" lon="10.522417180843146"><ele>19.142857142857146</ele><time>2026-04-09T16:24:30Z</time></trkpt><trkpt lat="43.31276788846127" lon="10.522391528505379"><ele>19.42857142857143</ele><time>2026-04-09T16:24:33Z</time></trkpt><trkpt lat="43.31283892918178" lon="10.52237306935839"><ele>19.714285714285715</ele><time>2026-04-09T16:24:36Z</time></trkpt><trkpt lat="43.31290339459752" lon="10.522377697560366"><ele>20.0</ele><time>2026-04-09T16:24:39Z</time></trkpt><trkpt lat="43.31296685978136" lon="10.522355422169658"><ele>20.0</ele><time>2026-04-09T16:24:45Z</time></trkpt><trkpt lat="43.313025470061476" lon="10.522323278841938"><ele>20.0</ele><time>2026-04-09T16:24:49Z</time></trkpt><trkpt lat="43.313084507897145" lon="10.522288373359798"><ele>20.0</ele><time>2026-04-09T16:24:52Z</time></trkpt><trkpt lat="43.31314771852979" lon="10.522238701741617"><ele>20.0</ele><time>2026-04-09T16:24:55Z</time></trkpt><trkpt lat="43.313200117607344" lon="10.522175425071307"><ele>20.0</ele><time>2026-04-09T16:24:58Z</time></trkpt><trkpt lat="43.31323863754327" lon="10.522074907656558"><ele>20.0</ele><time>2026-04-09T16:25:01Z</time></trkpt><trkpt lat="43.31330278202338" lon="10.522001852561097"><ele>20.0</ele><time>2026-04-09T16:25:04Z</time></trkpt><trkpt lat="43.313383377875915" lon="10.521978310321892"><ele>19.857142857142858</ele><time>2026-04-09T16:25:07Z</time></trkpt><trkpt lat="43.31342591356234" lon="10.52189792979712"><ele>19.714285714285715</ele><time>2026-04-09T16:25:12Z</time></trkpt><trkpt lat="43.313469788988726" lon="10.52182589591975"><ele>19.57142857142857</ele><time>2026-04-09T16:25:17Z</time></trkpt><trkpt lat="43.31350014954597" lon="10.521743680056382"><ele>19.42857142857143</ele><time>2026-04-09T16:25:21Z</time></trkpt><trkpt lat="43.3135474992348" lon="10.521653273076346"><ele>19.28571428571429</ele><time>2026-04-09T16:25:25Z</time></trkpt><trkpt lat="43.31356090625644" lon="10.521565745679577"><ele>19.142857142857142</ele><time>2026-04-09T16:25:29Z</time></trkpt><trkpt lat="43.31358042312499" lon="10.52146278996569"><ele>19.0</ele><time>2026-04-09T16:25:33Z</time></trkpt><trkpt lat="43.31361383185417" lon="10.521381502725914"><ele>19.0</ele><time>2026-04-09T16:25:37Z</time></trkpt><trkpt lat="43.31366115639976" lon="10.521317514353841"><ele>19.0</ele><time>2026-04-09T16:25:40Z</time></trkpt><trkpt lat="43.313717673934015" lon="10.521250477263838"><ele>19.0</ele><time>2026-04-09T16:25:43Z</time></trkpt><trkpt lat="43.31376378518856" lon="10.521161046005181"><ele>19.0</ele><time>2026-04-09T16:25:47Z</time></trkpt><trkpt lat="43.313800758966494" lon="10.521068629338302"><ele>19.0</ele><time>2026-04-09T16:25:52Z</time></trkpt><trkpt lat="43.31385174626523" lon="10.520993499174583"><ele>19.0</ele><time>2026-04-09T16:25:56Z</time></trkpt><trkpt lat="43.313897854383676" lon="10.5209330573673"><ele>19.0</ele><time>2026-04-09T16:26:01Z</time></trkpt><trkpt lat="43.313973779456646" lon="10.520864249198846"><ele>18.666666666666664</ele><time>2026-04-09T16:26:12Z</time></trkpt><trkpt lat="43.314038887860725" lon="10.52083740209813"><ele>18.333333333333332</ele><time>2026-04-09T16:26:18Z</time></trkpt><trkpt lat="43.314101892317034" lon="10.52082922818719"><ele>18.0</ele><time>2026-04-09T16:26:20Z</time></trkpt><trkpt lat="43.314168210823766" lon="10.520776952582025"><ele>17.666666666666668</ele><time>2026-04-09T16:26:23Z</time></trkpt><trkpt lat="43.31426281322389" lon="10.520713883695878"><ele>17.333333333333336</ele><time>2026-04-09T16:26:29Z</time></trkpt><trkpt lat="43.31432774295912" lon="10.520695989914682"><ele>17.0</ele><time>2026-04-09T16:26:32Z</time></trkpt><trkpt lat="43.314412256385225" lon="10.52068119539456"><ele>16.999999999999996</ele><time>2026-04-09T16:26:36Z</time></trkpt><trkpt lat="43.31448683808321" lon="10.52065285928121"><ele>17.0</ele><time>2026-04-09T16:26:39Z</time></trkpt><trkpt lat="43.31455475649554" lon="10.520652844776993"><ele>17.0</ele><time>2026-04-09T16:26:43Z</time></trkpt><trkpt lat="43.31462961923457" lon="10.520621966772445"><ele>17.0</ele><time>2026-04-09T16:26:47Z</time></trkpt><trkpt lat="43.314698323696916" lon="10.52061350434234"><ele>17.0</ele><time>2026-04-09T16:26:51Z</time></trkpt><trkpt lat="43.31476467148253" lon="10.52062980947451"><ele>16.999999999999996</ele><time>2026-04-09T16:26:55Z</time></trkpt><trkpt lat="43.31484216657021" lon="10.520606170231458"><ele>17.0</ele><time>2026-04-09T16:26:59Z</time></trkpt><trkpt lat="43.31490672751558" lon="10.52062681048503"><ele>16.71428571428571</ele><time>2026-04-09T16:27:04Z</time></trkpt><trkpt lat="43.314980647857595" lon="10.520643969738721"><ele>16.428571428571427</ele><time>2026-04-09T16:27:08Z</time></trkpt><trkpt lat="43.31506566553927" lon="10.520636902442902"><ele>16.142857142857142</ele><time>2026-04-09T16:27:12Z</time></trkpt><trkpt lat="43.315129951252594" lon="10.520645448790818"><ele>15.857142857142856</ele><time>2026-04-09T16:27:16Z</time></trkpt><trkpt lat="43.315191127762255" lon="10.520583095134368"><ele>15.57142857142857</ele><time>2026-04-09T16:27:22Z</time></trkpt><trkpt lat="43.31523095432333" lon="10.520512924100027"><ele>15.285714285714286</ele><time>2026-04-09T16:27:26Z</time></trkpt><trkpt lat="43.31526060630243" lon="10.52043406946931"><ele>15.0</ele><time>2026-04-09T16:27:32Z</time></trkpt><trkpt lat="43.315240088640564" lon="10.520316148793599"><ele>15.571428571428573</ele><time>2026-04-09T16:27:37Z</time></trkpt><trkpt lat="43.31521465509017" lon="10.520213862581372"><ele>16.142857142857142</ele><time>2026-04-09T16:27:42Z</time></trkpt><trkpt lat="43.315186186925175" lon="10.520133226976311"><ele>16.714285714285715</ele><time>2026-04-09T16:27:46Z</time></trkpt><trkpt lat="43.31515915680612" lon="10.520044714867689"><ele>17.285714285714285</ele><time>2026-04-09T16:27:50Z</time></trkpt><trkpt lat="43.315143001540534" lon="10.519954583265886"><ele>17.857142857142858</ele><time>2026-04-09T16:27:55Z</time></trkpt><trkpt lat="43.31512788520551" lon="10.519867439148765"><ele>18.428571428571427</ele><time>2026-04-09T16:27:59Z</time></trkpt><trkpt lat="43.31507636030354" lon="10.519783722447556"><ele>19.0</ele><time>2026-04-09T16:28:02Z</time></trkpt><trkpt lat="43.31504415560973" lon="10.51970158745125"><ele>19.0</ele><time>2026-04-09T16:28:05Z</time></trkpt><trkpt lat="43.315019643258246" lon="10.519617862977183"><ele>19.0</ele><time>2026-04-09T16:28:09Z</time></trkpt><trkpt lat="43.314982658172504" lon="10.5195242816863"><ele>19.0</ele><time>2026-04-09T16:28:14Z</time></trkpt><trkpt lat="43.314930458897194" lon="10.519457380182683"><ele>19.0</ele><time>2026-04-09T16:28:18Z</time></trkpt><trkpt lat="43.31491815582266" lon="10.519364444443008"><ele>19.0</ele><time>2026-04-09T16:28:22Z</time></trkpt><trkpt lat="43.31489263786246" lon="10.519264977323528"><ele>19.0</ele><time>2026-04-09T16:28:26Z</time></trkpt><trkpt lat="43.31488357383948" lon="10.519160313403557"><ele>19.0</ele><time>2026-04-09T16:28:31Z</time></trkpt><trkpt lat="43.314844976956564" lon="10.519066267712523"><ele>19.0</ele><time>2026-04-09T16:28:35Z</time></trkpt><trkpt lat="43.31481364567513" lon="10.518973317018206"><ele>19.0</ele><time>2026-04-09T16:28:39Z</time></trkpt><trkpt lat="43.31476925415167" lon="10.51888938883878"><ele>19.0</ele><time>2026-04-09T16:28:43Z</time></trkpt><trkpt lat="43.314733139319586" lon="10.518806933867154"><ele>19.0</ele><time>2026-04-09T16:28:47Z</time></trkpt><trkpt lat="43.31471913328425" lon="10.518711403500635"><ele>19.0</ele><time>2026-04-09T16:28:51Z</time></trkpt><trkpt lat="43.31470518249648" lon="10.51860619385822"><ele>19.0</ele><time>2026-04-09T16:28:55Z</time></trkpt><trkpt lat="43.3146805232248" lon="10.518514832552297"><ele>19.0</ele><time>2026-04-09T16:28:59Z</time></trkpt><trkpt lat="43.31464932501966" lon="10.518432063135409"><ele>18.428571428571427</ele><time>2026-04-09T16:29:03Z</time></trkpt><trkpt lat="43.31460718787575" lon="10.518353644743497"><ele>17.857142857142858</ele><time>2026-04-09T16:29:07Z</time></trkpt><trkpt lat="43.31458032345261" lon="10.518272197277561"><ele>17.285714285714285</ele><time>2026-04-09T16:29:11Z</time></trkpt><trkpt lat="43.31454801400627" lon="10.518185416666364"><ele>16.714285714285715</ele><time>2026-04-09T16:29:15Z</time></trkpt><trkpt lat="43.31453676578456" lon="10.518082309130627"><ele>16.142857142857142</ele><time>2026-04-09T16:29:20Z</time></trkpt><trkpt lat="43.31451961209351" lon="10.517984621224514"><ele>15.571428571428573</ele><time>2026-04-09T16:29:24Z</time></trkpt><trkpt lat="43.314486723209235" lon="10.517895312236945"><ele>15.0</ele><time>2026-04-09T16:29:28Z</time></trkpt><trkpt lat="43.314439577698856" lon="10.517825236611824"><ele>14.857142857142858</ele><time>2026-04-09T16:29:32Z</time></trkpt><trkpt lat="43.31440463355102" lon="10.51775124247438"><ele>14.714285714285714</ele><time>2026-04-09T16:29:36Z</time></trkpt><trkpt lat="43.31439092712842" lon="10.5176649101955"><ele>14.571428571428571</ele><time>2026-04-09T16:29:39Z</time></trkpt><trkpt lat="43.31437527798358" lon="10.517555904606978"><ele>14.428571428571429</ele><time>2026-04-09T16:29:43Z</time></trkpt><trkpt lat="43.31434590536844" lon="10.517479084879024"><ele>14.285714285714285</ele><time>2026-04-09T16:29:46Z</time></trkpt><trkpt lat="43.31433420273148" lon="10.517373014055105"><ele>14.142857142857142</ele><time>2026-04-09T16:29:50Z</time></trkpt><trkpt lat="43.31431679030486" lon="10.517270870588185"><ele>14.0</ele><time>2026-04-09T16:29:54Z</time></trkpt><trkpt lat="43.31428694532461" lon="10.517192829329604"><ele>14.0</ele><time>2026-04-09T16:29:58Z</time></trkpt><trkpt lat="43.31425288256834" lon="10.517103304379726"><ele>14.0</ele><time>2026-04-09T16:30:02Z</time></trkpt><trkpt lat="43.314230333521095" lon="10.517018527808544"><ele>14.0</ele><time>2026-04-09T16:30:07Z</time></trkpt><trkpt lat="43.31420308212711" lon="10.516904554404116"><ele>14.0</ele><time>2026-04-09T16:30:12Z</time></trkpt><trkpt lat="43.31415432390704" lon="10.516823628996677"><ele>14.0</ele><time>2026-04-09T16:30:16Z</time></trkpt><trkpt lat="43.31411003957991" lon="10.516760419073043"><ele>14.0</ele><time>2026-04-09T16:30:19Z</time></trkpt><trkpt lat="43.31406722917251" lon="10.51666888403815"><ele>14.0</ele><time>2026-04-09T16:30:24Z</time></trkpt><trkpt lat="43.314043942076154" lon="10.516582628009129"><ele>14.142857142857142</ele><time>2026-04-09T16:30:28Z</time></trkpt><trkpt lat="43.31399833773816" lon="10.516503549834184"><ele>14.285714285714285</ele><time>2026-04-09T16:30:32Z</time></trkpt><trkpt lat="43.31397678788298" lon="10.516407123348424"><ele>14.428571428571429</ele><time>2026-04-09T16:30:37Z</time></trkpt><trkpt lat="43.31395587599674" lon="10.516305073059316"><ele>14.571428571428571</ele><time>2026-04-09T16:30:41Z</time></trkpt><trkpt lat="43.313911188626136" lon="10.51621906265718"><ele>14.714285714285714</ele><time>2026-04-09T16:30:45Z</time></trkpt><trkpt lat="43.31393635857905" lon="10.51612100711433"><ele>14.857142857142858</ele><time>2026-04-09T16:30:49Z</time></trkpt><trkpt lat="43.31397137010389" lon="10.516035527824403"><ele>15.0</ele><time>2026-04-09T16:30:53Z</time></trkpt><trkpt lat="43.31394804157588" lon="10.51594750603182"><ele>14.714285714285715</ele><time>2026-04-09T16:30:57Z</time></trkpt><trkpt lat="43.31395535319367" lon="10.515853491968674"><ele>14.428571428571427</ele><time>2026-04-09T16:31:00Z</time></trkpt><trkpt lat="43.31395899849442" lon="10.515758229477706"><ele>14.142857142857142</ele><time>2026-04-09T16:31:04Z</time></trkpt><trkpt lat="43.31394922474793" lon="10.515660216207076"><ele>13.857142857142858</ele><time>2026-04-09T16:31:08Z</time></trkpt><trkpt lat="43.313934729486206" lon="10.515574527588141"><ele>13.571428571428573</ele><time>2026-04-09T16:31:12Z</time></trkpt><trkpt lat="43.31394893331675" lon="10.515482843060253"><ele>13.285714285714285</ele><time>2026-04-09T16:31:19Z</time></trkpt><trkpt lat="43.31394250105923" lon="10.515375427513865"><ele>13.0</ele><time>2026-04-09T16:31:24Z</time></trkpt><trkpt lat="43.31397937887585" lon="10.51527992418639"><ele>12.333333333333332</ele><time>2026-04-09T16:31:31Z</time></trkpt><trkpt lat="43.314021584253695" lon="10.515209663102734"><ele>11.666666666666666</ele><time>2026-04-09T16:31:35Z</time></trkpt><trkpt lat="43.314104605839475" lon="10.515189524505644"><ele>11.0</ele><time>2026-04-09T16:31:40Z</time></trkpt><trkpt lat="43.31418503063653" lon="10.515151917217242"><ele>10.333333333333332</ele><time>2026-04-09T16:31:44Z</time></trkpt><trkpt lat="43.314236267627535" lon="10.51509298164586"><ele>9.666666666666666</ele><time>2026-04-09T16:31:48Z</time></trkpt><trkpt lat="43.31426765283873" lon="10.515004561457015"><ele>9.0</ele><time>2026-04-09T16:31:52Z</time></trkpt><trkpt lat="43.31429614014795" lon="10.514905416429187"><ele>9.000000000000002</ele><time>2026-04-09T16:31:57Z</time></trkpt><trkpt lat="43.31432934316358" lon="10.514818254137836"><ele>9.0</ele><time>2026-04-09T16:32:00Z</time></trkpt><trkpt lat="43.314400511575684" lon="10.514820093359663"><ele>9.0</ele><time>2026-04-09T16:32:05Z</time></trkpt><trkpt lat="43.31446831585375" lon="10.514852515628174"><ele>9.0</ele><time>2026-04-09T16:32:11Z</time></trkpt><trkpt lat="43.31453136240249" lon="10.514817735957163"><ele>9.0</ele><time>2026-04-09T16:32:14Z</time></trkpt><trkpt lat="43.31458477232296" lon="10.514764759608564"><ele>9.000000000000002</ele><time>2026-04-09T16:32:18Z</time></trkpt><trkpt lat="43.31465404424919" lon="10.514705460215893"><ele>9.0</ele><time>2026-04-09T16:32:23Z</time></trkpt><trkpt lat="43.314711321275915" lon="10.514660684414636"><ele>8.428571428571429</ele><time>2026-04-09T16:32:26Z</time></trkpt><trkpt lat="43.31477829065131" lon="10.514608697306022"><ele>7.857142857142858</ele><time>2026-04-09T16:32:30Z</time></trkpt><trkpt lat="43.31483646364358" lon="10.51455782385662"><ele>7.2857142857142865</ele><time>2026-04-09T16:32:34Z</time></trkpt><trkpt lat="43.31489381489621" lon="10.514510248732012"><ele>6.714285714285715</ele><time>2026-04-09T16:32:38Z</time></trkpt><trkpt lat="43.31495762681762" lon="10.514467263906882"><ele>6.142857142857143</ele><time>2026-04-09T16:32:42Z</time></trkpt><trkpt lat="43.31501575250161" lon="10.514405829719342"><ele>5.571428571428571</ele><time>2026-04-09T16:32:47Z</time></trkpt><trkpt lat="43.31507441723282" lon="10.514369288279514"><ele>5.0</ele><time>2026-04-09T16:32:52Z</time></trkpt><trkpt lat="43.31512692150634" lon="10.514312026933075"><ele>5.0</ele><time>2026-04-09T16:32:57Z</time></trkpt><trkpt lat="43.31518619601357" lon="10.514262368770895"><ele>5.0</ele><time>2026-04-09T16:33:01Z</time></trkpt><trkpt lat="43.315249616027174" lon="10.514223876888694"><ele>5.0</ele><time>2026-04-09T16:33:05Z</time></trkpt><trkpt lat="43.31531819555981" lon="10.514174508320407"><ele>5.0</ele><time>2026-04-09T16:33:09Z</time></trkpt><trkpt lat="43.31537630273259" lon="10.51412380787652"><ele>5.0</ele><time>2026-04-09T16:33:13Z</time></trkpt><trkpt lat="43.31542480522265" lon="10.51406171584835"><ele>5.0</ele><time>2026-04-09T16:33:18Z</time></trkpt><trkpt lat="43.31549387650629" lon="10.514001573553053"><ele>5.0</ele><time>2026-04-09T16:33:22Z</time></trkpt><trkpt lat="43.31556389081266" lon="10.51395275992267"><ele>5.166666666666667</ele><time>2026-04-09T16:33:26Z</time></trkpt><trkpt lat="43.315626459113666" lon="10.513898523059812"><ele>5.333333333333334</ele><time>2026-04-09T16:33:30Z</time></trkpt><trkpt lat="43.315689996333454" lon="10.513841250400173"><ele>5.5</ele><time>2026-04-09T16:33:34Z</time></trkpt><trkpt lat="43.31575466261825" lon="10.513791888322343"><ele>5.666666666666667</ele><time>2026-04-09T16:33:38Z</time></trkpt><trkpt lat="43.315828542465006" lon="10.513748999127106"><ele>5.833333333333333</ele><time>2026-04-09T16:33:42Z</time></trkpt><trkpt lat="43.315901579467216" lon="10.513713402440313"><ele>6.0</ele><time>2026-04-09T16:33:46Z</time></trkpt><trkpt lat="43.31597341510462" lon="10.513683086057732"><ele>5.7142857142857135</ele><time>2026-04-09T16:33:50Z</time></trkpt><trkpt lat="43.316043149974846" lon="10.513644956274387"><ele>5.428571428571429</ele><time>2026-04-09T16:33:55Z</time></trkpt><trkpt lat="43.31610311797634" lon="10.513616092523964"><ele>5.142857142857142</ele><time>2026-04-09T16:33:58Z</time></trkpt><trkpt lat="43.316179011981305" lon="10.513590018561016"><ele>4.857142857142857</ele><time>2026-04-09T16:34:02Z</time></trkpt><trkpt lat="43.316244862068565" lon="10.513549408979236"><ele>4.571428571428571</ele><time>2026-04-09T16:34:06Z</time></trkpt><trkpt lat="43.31630919689195" lon="10.51352237554193"><ele>4.285714285714286</ele><time>2026-04-09T16:34:10Z</time></trkpt><trkpt lat="43.316374120716524" lon="10.513489321235356"><ele>4.0</ele><time>2026-04-09T16:34:14Z</time></trkpt><trkpt lat="43.31644511012263" lon="10.513457037901093"><ele>3.8571428571428568</ele><time>2026-04-09T16:34:18Z</time></trkpt><trkpt lat="43.31652744318132" lon="10.513445172424516"><ele>3.714285714285714</ele><time>2026-04-09T16:34:22Z</time></trkpt><trkpt lat="43.316597354252785" lon="10.513413886930525"><ele>3.571428571428571</ele><time>2026-04-09T16:34:26Z</time></trkpt><trkpt lat="43.31666722606642" lon="10.513383964466602"><ele>3.4285714285714284</ele><time>2026-04-09T16:34:30Z</time></trkpt><trkpt lat="43.31673606512146" lon="10.513355579235874"><ele>3.2857142857142856</ele><time>2026-04-09T16:34:34Z</time></trkpt><trkpt lat="43.316805489746216" lon="10.513334656235651"><ele>3.1428571428571423</ele><time>2026-04-09T16:34:38Z</time></trkpt><trkpt lat="43.31687700959526" lon="10.513295142795727"><ele>3.0</ele><time>2026-04-09T16:34:42Z</time></trkpt><trkpt lat="43.316950793496915" lon="10.513275386707175"><ele>2.9999999999999996</ele><time>2026-04-09T16:34:46Z</time></trkpt><trkpt lat="43.31702130853143" lon="10.513257385115903"><ele>3.0</ele><time>2026-04-09T16:34:50Z</time></trkpt><trkpt lat="43.31709171484256" lon="10.513240543398556"><ele>3.0</ele><time>2026-04-09T16:34:54Z</time></trkpt><trkpt lat="43.31716007251355" lon="10.513211745145828"><ele>3.0</ele><time>2026-04-09T16:34:58Z</time></trkpt><trkpt lat="43.317231978467" lon="10.513192554009738"><ele>3.0</ele><time>2026-04-09T16:35:02Z</time></trkpt><trkpt lat="43.31730145869889" lon="10.513165817205754"><ele>2.9999999999999996</ele><time>2026-04-09T16:35:06Z</time></trkpt><trkpt lat="43.31737041309912" lon="10.513146474606232"><ele>3.0</ele><time>2026-04-09T16:35:10Z</time></trkpt><trkpt lat="43.317434733563026" lon="10.51312109198327"><ele>2.8571428571428568</ele><time>2026-04-09T16:35:14Z</time></trkpt><trkpt lat="43.317504082717086" lon="10.51309713033402"><ele>2.7142857142857144</ele><time>2026-04-09T16:35:18Z</time></trkpt><trkpt lat="43.31757612773955" lon="10.513072938608172"><ele>2.571428571428571</ele><time>2026-04-09T16:35:22Z</time></trkpt><trkpt lat="43.31764345761954" lon="10.513047731930675"><ele>2.4285714285714284</ele><time>2026-04-09T16:35:26Z</time></trkpt><trkpt lat="43.31771285066392" lon="10.513024888126028"><ele>2.2857142857142856</ele><time>2026-04-09T16:35:30Z</time></trkpt><trkpt lat="43.31777862387092" lon="10.512996347776848"><ele>2.142857142857143</ele><time>2026-04-09T16:35:34Z</time></trkpt><trkpt lat="43.31784378053614" lon="10.512972352526429"><ele>2.0</ele><time>2026-04-09T16:35:38Z</time></trkpt><trkpt lat="43.31790844704517" lon="10.512945337446611"><ele>2.0</ele><time>2026-04-09T16:35:42Z</time></trkpt><trkpt lat="43.31798540983241" lon="10.512911665668941"><ele>1.9999999999999998</ele><time>2026-04-09T16:35:46Z</time></trkpt><trkpt lat="43.31805491798276" lon="10.51288505253237"><ele>2.0</ele><time>2026-04-09T16:35:50Z</time></trkpt><trkpt lat="43.31812277591982" lon="10.512856374124652"><ele>2.0</ele><time>2026-04-09T16:35:54Z</time></trkpt><trkpt lat="43.318190042326165" lon="10.5128386851579"><ele>1.9999999999999998</ele><time>2026-04-09T16:35:58Z</time></trkpt><trkpt lat="43.31825713759326" lon="10.512809168332883"><ele>2.0</ele><time>2026-04-09T16:36:02Z</time></trkpt><trkpt lat="43.31833487902311" lon="10.512788565413455"><ele>2.0</ele><time>2026-04-09T16:36:07Z</time></trkpt><trkpt lat="43.31840111912047" lon="10.512761370929343"><ele>2.4285714285714284</ele><time>2026-04-09T16:36:11Z</time></trkpt><trkpt lat="43.318472634281086" lon="10.512723314175389"><ele>2.8571428571428568</ele><time>2026-04-09T16:36:16Z</time></trkpt><trkpt lat="43.31854529890411" lon="10.51268570101846"><ele>3.2857142857142856</ele><time>2026-04-09T16:36:20Z</time></trkpt><trkpt lat="43.318606365417764" lon="10.512647751662591"><ele>3.7142857142857144</ele><time>2026-04-09T16:36:24Z</time></trkpt><trkpt lat="43.3186758151819" lon="10.51261871192245"><ele>4.142857142857143</ele><time>2026-04-09T16:36:28Z</time></trkpt><trkpt lat="43.31874697388229" lon="10.512583812417272"><ele>4.571428571428571</ele><time>2026-04-09T16:36:32Z</time></trkpt><trkpt lat="43.31881493073306" lon="10.51255424120384"><ele>5.0</ele><time>2026-04-09T16:36:36Z</time></trkpt><trkpt lat="43.31887769402504" lon="10.512513666206685"><ele>5.142857142857142</ele><time>2026-04-09T16:36:40Z</time></trkpt><trkpt lat="43.31894093051878" lon="10.512475787446581"><ele>5.285714285714286</ele><time>2026-04-09T16:36:44Z</time></trkpt><trkpt lat="43.31900572607843" lon="10.512435853367824"><ele>5.428571428571429</ele><time>2026-04-09T16:36:48Z</time></trkpt><trkpt lat="43.319071941610076" lon="10.512392591093397"><ele>5.571428571428571</ele><time>2026-04-09T16:36:52Z</time></trkpt><trkpt lat="43.31913564083663" lon="10.512359711521402"><ele>5.714285714285714</ele><time>2026-04-09T16:36:56Z</time></trkpt><trkpt lat="43.31919836079874" lon="10.512316329642696"><ele>5.857142857142857</ele><time>2026-04-09T16:37:00Z</time></trkpt><trkpt lat="43.31926520879074" lon="10.51227523346004"><ele>6.0</ele><time>2026-04-09T16:37:04Z</time></trkpt><trkpt lat="43.3193297171006" lon="10.512234083453366"><ele>5.999999999999999</ele><time>2026-04-09T16:37:08Z</time></trkpt><trkpt lat="43.31939669081909" lon="10.512194540762609"><ele>6.0</ele><time>2026-04-09T16:37:12Z</time></trkpt><trkpt lat="43.319464872371306" lon="10.512161329523233"><ele>6.0</ele><time>2026-04-09T16:37:16Z</time></trkpt><trkpt lat="43.3195318904334" lon="10.512116910002751"><ele>6.0</ele><time>2026-04-09T16:37:20Z</time></trkpt><trkpt lat="43.31959809108968" lon="10.512075528217812"><ele>6.0</ele><time>2026-04-09T16:37:24Z</time></trkpt><trkpt lat="43.31966295020754" lon="10.512039641116942"><ele>5.999999999999999</ele><time>2026-04-09T16:37:28Z</time></trkpt><trkpt lat="43.31972547807046" lon="10.512009643197329"><ele>6.0</ele><time>2026-04-09T16:37:32Z</time></trkpt><trkpt lat="43.319788598277896" lon="10.511970833720149"><ele>5.857142857142857</ele><time>2026-04-09T16:37:36Z</time></trkpt><trkpt lat="43.31985363040287" lon="10.51193193011349"><ele>5.714285714285714</ele><time>2026-04-09T16:37:40Z</time></trkpt><trkpt lat="43.31991690436687" lon="10.511883734971786"><ele>5.571428571428571</ele><time>2026-04-09T16:37:44Z</time></trkpt><trkpt lat="43.31998057404779" lon="10.511842646898955"><ele>5.428571428571429</ele><time>2026-04-09T16:37:48Z</time></trkpt><trkpt lat="43.32004664878144" lon="10.51181233768027"><ele>5.285714285714286</ele><time>2026-04-09T16:37:52Z</time></trkpt><trkpt lat="43.32011128038756" lon="10.511775063788221"><ele>5.142857142857142</ele><time>2026-04-09T16:37:56Z</time></trkpt><trkpt lat="43.32017323693048" lon="10.511742991355705"><ele>5.0</ele><time>2026-04-09T16:38:00Z</time></trkpt><trkpt lat="43.320237066295846" lon="10.511708619186562"><ele>5.0</ele><time>2026-04-09T16:38:04Z</time></trkpt><trkpt lat="43.320298944863886" lon="10.51166927064468"><ele>5.0</ele><time>2026-04-09T16:38:08Z</time></trkpt><trkpt lat="43.320362658024415" lon="10.511631618669186"><ele>5.0</ele><time>2026-04-09T16:38:12Z</time></trkpt><trkpt lat="43.320423651813925" lon="10.511578718725518"><ele>5.0</ele><time>2026-04-09T16:38:16Z</time></trkpt><trkpt lat="43.32049001881445" lon="10.511536413393353"><ele>5.0</ele><time>2026-04-09T16:38:20Z</time></trkpt><trkpt lat="43.32055520370618" lon="10.511496042834672"><ele>5.0</ele><time>2026-04-09T16:38:24Z</time></trkpt><trkpt lat="43.320623138369776" lon="10.511460977617567"><ele>5.0</ele><time>2026-04-09T16:38:28Z</time></trkpt><trkpt lat="43.32068738642141" lon="10.511423961716908"><ele>5.0</ele><time>2026-04-09T16:38:32Z</time></trkpt><trkpt lat="43.320749927084684" lon="10.511381057234367"><ele>5.0</ele><time>2026-04-09T16:38:36Z</time></trkpt><trkpt lat="43.320813206290026" lon="10.511337340962239"><ele>5.0</ele><time>2026-04-09T16:38:40Z</time></trkpt><trkpt lat="43.32087800601045" lon="10.511300223121397"><ele>5.0</ele><time>2026-04-09T16:38:44Z</time></trkpt><trkpt lat="43.320939421437856" lon="10.511256819246983"><ele>5.0</ele><time>2026-04-09T16:38:48Z</time></trkpt><trkpt lat="43.32100281872119" lon="10.511212560569511"><ele>5.0</ele><time>2026-04-09T16:38:52Z</time></trkpt><trkpt lat="43.32106740727682" lon="10.511168124978417"><ele>5.0</ele><time>2026-04-09T16:38:56Z</time></trkpt><trkpt lat="43.32113057868453" lon="10.51113325623034"><ele>5.0</ele><time>2026-04-09T16:39:00Z</time></trkpt><trkpt lat="43.32119494379165" lon="10.511092896506009"><ele>5.0</ele><time>2026-04-09T16:39:04Z</time></trkpt><trkpt lat="43.32125892057657" lon="10.51105710672001"><ele>5.0</ele><time>2026-04-09T16:39:08Z</time></trkpt><trkpt lat="43.321321065338" lon="10.511015951901497"><ele>5.0</ele><time>2026-04-09T16:39:12Z</time></trkpt><trkpt lat="43.321384195036394" lon="10.510976215928542"><ele>5.0</ele><time>2026-04-09T16:39:16Z</time></trkpt><trkpt lat="43.32144588921153" lon="10.510940929282487"><ele>5.0</ele><time>2026-04-09T16:39:20Z</time></trkpt><trkpt lat="43.321510599600494" lon="10.510902990361899"><ele>5.0</ele><time>2026-04-09T16:39:24Z</time></trkpt><trkpt lat="43.321572981319946" lon="10.510862595244975"><ele>4.714285714285714</ele><time>2026-04-09T16:39:28Z</time></trkpt><trkpt lat="43.32163604187068" lon="10.510818995956274"><ele>4.428571428571429</ele><time>2026-04-09T16:39:32Z</time></trkpt><trkpt lat="43.321699124388786" lon="10.510778076533759"><ele>4.142857142857142</ele><time>2026-04-09T16:39:36Z</time></trkpt><trkpt lat="43.321762923868015" lon="10.51073858367915"><ele>3.8571428571428568</ele><time>2026-04-09T16:39:40Z</time></trkpt><trkpt lat="43.3218267219081" lon="10.510701190763795"><ele>3.571428571428571</ele><time>2026-04-09T16:39:44Z</time></trkpt><trkpt lat="43.32189256757385" lon="10.510654475972133"><ele>3.2857142857142856</ele><time>2026-04-09T16:39:48Z</time></trkpt><trkpt lat="43.32195643712117" lon="10.510617167346593"><ele>3.0</ele><time>2026-04-09T16:39:52Z</time></trkpt><trkpt lat="43.32201834409818" lon="10.510577981897702"><ele>2.9999999999999996</ele><time>2026-04-09T16:39:56Z</time></trkpt><trkpt lat="43.32208317031262" lon="10.510541879532788"><ele>3.0</ele><time>2026-04-09T16:40:00Z</time></trkpt><trkpt lat="43.322148737487964" lon="10.510505073164135"><ele>3.0</ele><time>2026-04-09T16:40:04Z</time></trkpt><trkpt lat="43.32221166789855" lon="10.510467526589387"><ele>3.0</ele><time>2026-04-09T16:40:08Z</time></trkpt><trkpt lat="43.32227246664363" lon="10.510425111268408"><ele>3.0</ele><time>2026-04-09T16:40:12Z</time></trkpt><trkpt lat="43.32233697700651" lon="10.510379854390655"><ele>2.9999999999999996</ele><time>2026-04-09T16:40:16Z</time></trkpt><trkpt lat="43.32239969054724" lon="10.510329207167675"><ele>3.0</ele><time>2026-04-09T16:40:20Z</time></trkpt><trkpt lat="43.32246467702512" lon="10.510291423469312"><ele>3.2857142857142856</ele><time>2026-04-09T16:40:24Z</time></trkpt><trkpt lat="43.3225265866419" lon="10.51025496701258"><ele>3.571428571428571</ele><time>2026-04-09T16:40:28Z</time></trkpt><trkpt lat="43.32258939264114" lon="10.510210388211975"><ele>3.8571428571428568</ele><time>2026-04-09T16:40:32Z</time></trkpt><trkpt lat="43.32265224785224" lon="10.510173722471823"><ele>4.142857142857142</ele><time>2026-04-09T16:40:36Z</time></trkpt><trkpt lat="43.32272173984962" lon="10.510145531898035"><ele>4.428571428571429</ele><time>2026-04-09T16:40:40Z</time></trkpt><trkpt lat="43.32278321250135" lon="10.510107321174399"><ele>4.714285714285714</ele><time>2026-04-09T16:40:44Z</time></trkpt><trkpt lat="43.32284364353349" lon="10.510063195529142"><ele>5.0</ele><time>2026-04-09T16:40:48Z</time></trkpt><trkpt lat="43.32290217236589" lon="10.510014283829184"><ele>5.0</ele><time>2026-04-09T16:40:52Z</time></trkpt><trkpt lat="43.32294699279392" lon="10.50994799121838"><ele>5.0</ele><time>2026-04-09T16:40:56Z</time></trkpt><trkpt lat="43.32296667325508" lon="10.509850164576847"><ele>5.0</ele><time>2026-04-09T16:41:02Z</time></trkpt><trkpt lat="43.32296913941101" lon="10.509739649429836"><ele>5.0</ele><time>2026-04-09T16:41:06Z</time></trkpt><trkpt lat="43.32296319984736" lon="10.50963739337866"><ele>5.0</ele><time>2026-04-09T16:41:10Z</time></trkpt><trkpt lat="43.32295013315857" lon="10.509540266933024"><ele>5.0</ele><time>2026-04-09T16:41:14Z</time></trkpt><trkpt lat="43.32295547276395" lon="10.509443959353979"><ele>5.0</ele><time>2026-04-09T16:41:18Z</time></trkpt><trkpt lat="43.3229766047092" lon="10.509356231545496"><ele>5.0</ele><time>2026-04-09T16:41:22Z</time></trkpt><trkpt lat="43.32301679770757" lon="10.509282203955143"><ele>5.0</ele><time>2026-04-09T16:41:26Z</time></trkpt><trkpt lat="43.32306124831396" lon="10.509209890837194"><ele>5.0</ele><time>2026-04-09T16:41:30Z</time></trkpt><trkpt lat="43.32310207638898" lon="10.509136273792285"><ele>5.0</ele><time>2026-04-09T16:41:34Z</time></trkpt><trkpt lat="43.32314777063138" lon="10.509062332204955"><ele>5.0</ele><time>2026-04-09T16:41:38Z</time></trkpt><trkpt lat="43.323191861519135" lon="10.508981084298604"><ele>5.0</ele><time>2026-04-09T16:41:42Z</time></trkpt><trkpt lat="43.323239991935665" lon="10.508916358233872"><ele>5.0</ele><time>2026-04-09T16:41:46Z</time></trkpt><trkpt lat="43.32327761452218" lon="10.508832971618"><ele>5.0</ele><time>2026-04-09T16:41:50Z</time></trkpt><trkpt lat="43.323313673041106" lon="10.508755360543777"><ele>5.0</ele><time>2026-04-09T16:41:54Z</time></trkpt><trkpt lat="43.32333530296364" lon="10.5086603375202"><ele>5.0</ele><time>2026-04-09T16:41:58Z</time></trkpt><trkpt lat="43.32333697720962" lon="10.508550543882784"><ele>5.0</ele><time>2026-04-09T16:42:02Z</time></trkpt><trkpt lat="43.323317483644956" lon="10.508440818156375"><ele>5.0</ele><time>2026-04-09T16:42:06Z</time></trkpt><trkpt lat="43.32329810781642" lon="10.508350499578292"><ele>5.0</ele><time>2026-04-09T16:42:10Z</time></trkpt><trkpt lat="43.32327887721543" lon="10.508254625886725"><ele>5.0</ele><time>2026-04-09T16:42:14Z</time></trkpt><trkpt lat="43.32326609313576" lon="10.508159218940433"><ele>5.0</ele><time>2026-04-09T16:42:18Z</time></trkpt><trkpt lat="43.32322847815711" lon="10.508071640603347"><ele>5.0</ele><time>2026-04-09T16:42:22Z</time></trkpt><trkpt lat="43.32318499067193" lon="10.5079800034158"><ele>5.0</ele><time>2026-04-09T16:42:26Z</time></trkpt><trkpt lat="43.32314381795281" lon="10.507899713379045"><ele>5.0</ele><time>2026-04-09T16:42:30Z</time></trkpt><trkpt lat="43.32310295308348" lon="10.507810578547405"><ele>5.0</ele><time>2026-04-09T16:42:34Z</time></trkpt><trkpt lat="43.32306409092724" lon="10.507722919325476"><ele>5.0</ele><time>2026-04-09T16:42:38Z</time></trkpt><trkpt lat="43.32302498956074" lon="10.507641361975246"><ele>5.0</ele><time>2026-04-09T16:42:42Z</time></trkpt><trkpt lat="43.32298298300873" lon="10.507558653230497"><ele>5.0</ele><time>2026-04-09T16:42:46Z</time></trkpt><trkpt lat="43.32294357537943" lon="10.507482111129352"><ele>5.0</ele><time>2026-04-09T16:42:50Z</time></trkpt><trkpt lat="43.32290076865045" lon="10.507409049148162"><ele>5.0</ele><time>2026-04-09T16:42:54Z</time></trkpt><trkpt lat="43.322861891552364" lon="10.507328172872535"><ele>5.0</ele><time>2026-04-09T16:42:58Z</time></trkpt><trkpt lat="43.322821459798995" lon="10.50724782945134"><ele>5.0</ele><time>2026-04-09T16:43:02Z</time></trkpt><trkpt lat="43.322782103319504" lon="10.507169277649153"><ele>5.0</ele><time>2026-04-09T16:43:06Z</time></trkpt><trkpt lat="43.32273974112459" lon="10.507097151273447"><ele>5.0</ele><time>2026-04-09T16:43:10Z</time></trkpt><trkpt lat="43.32270596889378" lon="10.507012792530508"><ele>5.0</ele><time>2026-04-09T16:43:14Z</time></trkpt><trkpt lat="43.3226667287923" lon="10.506942934918472"><ele>5.0</ele><time>2026-04-09T16:43:18Z</time></trkpt><trkpt lat="43.32261865592569" lon="10.50687679509198"><ele>5.0</ele><time>2026-04-09T16:43:22Z</time></trkpt><trkpt lat="43.32257649644678" lon="10.506799837308714"><ele>5.0</ele><time>2026-04-09T16:43:26Z</time></trkpt><trkpt lat="43.32253729811302" lon="10.50672266058168"><ele>5.0</ele><time>2026-04-09T16:43:30Z</time></trkpt><trkpt lat="43.32249698729011" lon="10.50664505623057"><ele>5.0</ele><time>2026-04-09T16:43:34Z</time></trkpt><trkpt lat="43.322455862108825" lon="10.50656886839057"><ele>5.0</ele><time>2026-04-09T16:43:38Z</time></trkpt><trkpt lat="43.32241324683059" lon="10.506495912148212"><ele>5.0</ele><time>2026-04-09T16:43:42Z</time></trkpt><trkpt lat="43.32236938036126" lon="10.506426637427545"><ele>5.0</ele><time>2026-04-09T16:43:46Z</time></trkpt><trkpt lat="43.322325108226" lon="10.506355290519016"><ele>5.0</ele><time>2026-04-09T16:43:50Z</time></trkpt><trkpt lat="43.3222833554069" lon="10.506271818264763"><ele>5.0</ele><time>2026-04-09T16:43:54Z</time></trkpt><trkpt lat="43.32224167070353" lon="10.506185511038867"><ele>5.0</ele><time>2026-04-09T16:43:58Z</time></trkpt><trkpt lat="43.32219172426562" lon="10.506099153404307"><ele>5.0</ele><time>2026-04-09T16:44:02Z</time></trkpt><trkpt lat="43.322146043347665" lon="10.506019434467476"><ele>5.0</ele><time>2026-04-09T16:44:06Z</time></trkpt><trkpt lat="43.322107855427355" lon="10.505943743456651"><ele>4.857142857142857</ele><time>2026-04-09T16:44:10Z</time></trkpt><trkpt lat="43.32206506278665" lon="10.50586356326046"><ele>4.714285714285714</ele><time>2026-04-09T16:44:14Z</time></trkpt><trkpt lat="43.32202553309232" lon="10.50579399763074"><ele>4.571428571428571</ele><time>2026-04-09T16:44:18Z</time></trkpt><trkpt lat="43.321984172319176" lon="10.505717258742493"><ele>4.428571428571429</ele><time>2026-04-09T16:44:22Z</time></trkpt><trkpt lat="43.32194393760277" lon="10.50564164659977"><ele>4.285714285714286</ele><time>2026-04-09T16:44:26Z</time></trkpt><trkpt lat="43.3219112373124" lon="10.505563450946038"><ele>4.142857142857142</ele><time>2026-04-09T16:44:30Z</time></trkpt><trkpt lat="43.32187905410964" lon="10.505484806537464"><ele>4.0</ele><time>2026-04-09T16:44:34Z</time></trkpt><trkpt lat="43.32184434626595" lon="10.505401866393283"><ele>4.0</ele><time>2026-04-09T16:44:38Z</time></trkpt><trkpt lat="43.32179651801933" lon="10.505316190857972"><ele>3.9999999999999996</ele><time>2026-04-09T16:44:42Z</time></trkpt><trkpt lat="43.32174866210382" lon="10.505239038221667"><ele>4.0</ele><time>2026-04-09T16:44:46Z</time></trkpt><trkpt lat="43.32170254993966" lon="10.50517078567362"><ele>4.0</ele><time>2026-04-09T16:44:50Z</time></trkpt><trkpt lat="43.32166548131219" lon="10.505094238665725"><ele>3.9999999999999996</ele><time>2026-04-09T16:44:54Z</time></trkpt><trkpt lat="43.32161595257016" lon="10.505018348965546"><ele>4.0</ele><time>2026-04-09T16:44:58Z</time></trkpt><trkpt lat="43.321573983379345" lon="10.504938758738644"><ele>4.0</ele><time>2026-04-09T16:45:02Z</time></trkpt><trkpt lat="43.32153095545037" lon="10.504862746200175"><ele>4.0</ele><time>2026-04-09T16:45:06Z</time></trkpt><trkpt lat="43.32149290072922" lon="10.504780742198642"><ele>3.9999999999999996</ele><time>2026-04-09T16:45:10Z</time></trkpt><trkpt lat="43.32144791912534" lon="10.504705736633833"><ele>4.0</ele><time>2026-04-09T16:45:14Z</time></trkpt><trkpt lat="43.321403908559944" lon="10.504625069497308"><ele>4.0</ele><time>2026-04-09T16:45:18Z</time></trkpt><trkpt lat="43.321369815489874" lon="10.504541226396958"><ele>3.9999999999999996</ele><time>2026-04-09T16:45:22Z</time></trkpt><trkpt lat="43.32133328992408" lon="10.50446530895492"><ele>4.0</ele><time>2026-04-09T16:45:26Z</time></trkpt><trkpt lat="43.321280031138734" lon="10.504414018495275"><ele>4.0</ele><time>2026-04-09T16:45:33Z</time></trkpt><trkpt lat="43.3212383756781" lon="10.504344035769789"><ele>3.714285714285714</ele><time>2026-04-09T16:45:36Z</time></trkpt><trkpt lat="43.32120111811282" lon="10.504260478701063"><ele>3.428571428571428</ele><time>2026-04-09T16:45:39Z</time></trkpt><trkpt lat="43.32117077355418" lon="10.504175544962987"><ele>3.142857142857143</ele><time>2026-04-09T16:45:42Z</time></trkpt><trkpt lat="43.32114167023506" lon="10.504096136170057"><ele>2.8571428571428568</ele><time>2026-04-09T16:45:45Z</time></trkpt><trkpt lat="43.32109634192212" lon="10.504005618134537"><ele>2.571428571428571</ele><time>2026-04-09T16:45:49Z</time></trkpt><trkpt lat="43.32105582492078" lon="10.503921278386128"><ele>2.2857142857142856</ele><time>2026-04-09T16:45:53Z</time></trkpt><trkpt lat="43.32101458571997" lon="10.503846575875812"><ele>2.0</ele><time>2026-04-09T16:45:57Z</time></trkpt><trkpt lat="43.32097270003807" lon="10.503765243970989"><ele>2.142857142857143</ele><time>2026-04-09T16:46:01Z</time></trkpt><trkpt lat="43.32093753326369" lon="10.5036806851083"><ele>2.2857142857142856</ele><time>2026-04-09T16:46:05Z</time></trkpt><trkpt lat="43.320904769860114" lon="10.50360329375732"><ele>2.4285714285714284</ele><time>2026-04-09T16:46:09Z</time></trkpt><trkpt lat="43.32086592244107" lon="10.503531888860131"><ele>2.571428571428571</ele><time>2026-04-09T16:46:13Z</time></trkpt><trkpt lat="43.32082206366581" lon="10.503462519896145"><ele>2.7142857142857144</ele><time>2026-04-09T16:46:17Z</time></trkpt><trkpt lat="43.32078968733412" lon="10.503387357172729"><ele>2.8571428571428568</ele><time>2026-04-09T16:46:21Z</time></trkpt><trkpt lat="43.3207569318181" lon="10.503303445351674"><ele>3.0</ele><time>2026-04-09T16:46:25Z</time></trkpt><trkpt lat="43.32070586521685" lon="10.503218340056794"><ele>2.9999999999999996</ele><time>2026-04-09T16:46:30Z</time></trkpt><trkpt lat="43.32066443906237" lon="10.503143141148128"><ele>3.0</ele><time>2026-04-09T16:46:34Z</time></trkpt><trkpt lat="43.32062143689734" lon="10.503069136876212"><ele>3.0</ele><time>2026-04-09T16:46:38Z</time></trkpt><trkpt lat="43.32058176149044" lon="10.502992269645612"><ele>3.0</ele><time>2026-04-09T16:46:42Z</time></trkpt><trkpt lat="43.32054266042069" lon="10.502912504683671"><ele>3.0</ele><time>2026-04-09T16:46:46Z</time></trkpt><trkpt lat="43.32050670794982" lon="10.502840386815373"><ele>2.9999999999999996</ele><time>2026-04-09T16:46:50Z</time></trkpt><trkpt lat="43.320466841667574" lon="10.502766525427605"><ele>3.0</ele><time>2026-04-09T16:46:54Z</time></trkpt><trkpt lat="43.32042917917876" lon="10.502690016859278"><ele>3.1428571428571423</ele><time>2026-04-09T16:46:58Z</time></trkpt><trkpt lat="43.32038414960882" lon="10.502603375065489"><ele>3.2857142857142856</ele><time>2026-04-09T16:47:02Z</time></trkpt><trkpt lat="43.320346078514326" lon="10.502526119520386"><ele>3.4285714285714284</ele><time>2026-04-09T16:47:06Z</time></trkpt><trkpt lat="43.32029962789348" lon="10.502447395217802"><ele>3.571428571428571</ele><time>2026-04-09T16:47:10Z</time></trkpt><trkpt lat="43.32025808930096" lon="10.50236922955739"><ele>3.714285714285714</ele><time>2026-04-09T16:47:14Z</time></trkpt><trkpt lat="43.320214236316936" lon="10.502287168358311"><ele>3.8571428571428568</ele><time>2026-04-09T16:47:18Z</time></trkpt><trkpt lat="43.32017581345543" lon="10.502207197672154"><ele>4.0</ele><time>2026-04-09T16:47:22Z</time></trkpt><trkpt lat="43.32013145469754" lon="10.502138351940758"><ele>4.142857142857142</ele><time>2026-04-09T16:47:26Z</time></trkpt><trkpt lat="43.3200959863074" lon="10.50206055337663"><ele>4.285714285714286</ele><time>2026-04-09T16:47:30Z</time></trkpt><trkpt lat="43.320059744904654" lon="10.501983639963804"><ele>4.428571428571429</ele><time>2026-04-09T16:47:34Z</time></trkpt><trkpt lat="43.32002162171131" lon="10.501904187449087"><ele>4.571428571428571</ele><time>2026-04-09T16:47:38Z</time></trkpt><trkpt lat="43.31997973311535" lon="10.501825121637095"><ele>4.714285714285714</ele><time>2026-04-09T16:47:42Z</time></trkpt><trkpt lat="43.31994667646574" lon="10.501743708158777"><ele>4.857142857142857</ele><time>2026-04-09T16:47:46Z</time></trkpt><trkpt lat="43.319903657880246" lon="10.501665644068543"><ele>5.0</ele><time>2026-04-09T16:47:50Z</time></trkpt><trkpt lat="43.319848046878526" lon="10.501591644552693"><ele>5.0</ele><time>2026-04-09T16:47:54Z</time></trkpt><trkpt lat="43.31981114722729" lon="10.501511754387932"><ele>5.0</ele><time>2026-04-09T16:47:58Z</time></trkpt><trkpt lat="43.31977433185968" lon="10.501438268591546"><ele>5.0</ele><time>2026-04-09T16:48:02Z</time></trkpt><trkpt lat="43.31973105986538" lon="10.501361712465728"><ele>5.0</ele><time>2026-04-09T16:48:06Z</time></trkpt><trkpt lat="43.319688943457415" lon="10.501284971129863"><ele>5.0</ele><time>2026-04-09T16:48:10Z</time></trkpt><trkpt lat="43.3196428947925" lon="10.501197581403709"><ele>5.0</ele><time>2026-04-09T16:48:15Z</time></trkpt><trkpt lat="43.31960787549132" lon="10.501122725560467"><ele>5.0</ele><time>2026-04-09T16:48:19Z</time></trkpt><trkpt lat="43.31956490218222" lon="10.501026630988394"><ele>4.571428571428571</ele><time>2026-04-09T16:48:23Z</time></trkpt><trkpt lat="43.31953103320051" lon="10.500936858304804"><ele>4.142857142857143</ele><time>2026-04-09T16:48:27Z</time></trkpt><trkpt lat="43.3194880069522" lon="10.500854335404457"><ele>3.7142857142857144</ele><time>2026-04-09T16:48:31Z</time></trkpt><trkpt lat="43.31944977446553" lon="10.500773807901908"><ele>3.2857142857142856</ele><time>2026-04-09T16:48:35Z</time></trkpt><trkpt lat="43.31940411516221" lon="10.50069930676508"><ele>2.8571428571428568</ele><time>2026-04-09T16:48:39Z</time></trkpt><trkpt lat="43.319352440628734" lon="10.500634240258085"><ele>2.4285714285714284</ele><time>2026-04-09T16:48:43Z</time></trkpt><trkpt lat="43.31930984707716" lon="10.50056082686919"><ele>2.0</ele><time>2026-04-09T16:48:47Z</time></trkpt><trkpt lat="43.31926501787512" lon="10.500485844734504"><ele>2.142857142857143</ele><time>2026-04-09T16:48:51Z</time></trkpt><trkpt lat="43.31922772736207" lon="10.500407455688276"><ele>2.2857142857142856</ele><time>2026-04-09T16:48:55Z</time></trkpt><trkpt lat="43.31918888772285" lon="10.500333910707424"><ele>2.4285714285714284</ele><time>2026-04-09T16:48:59Z</time></trkpt><trkpt lat="43.319151323586" lon="10.500263327213728"><ele>2.571428571428571</ele><time>2026-04-09T16:49:03Z</time></trkpt><trkpt lat="43.31911550714072" lon="10.500183609919347"><ele>2.7142857142857144</ele><time>2026-04-09T16:49:07Z</time></trkpt><trkpt lat="43.31907284641841" lon="10.500105455844876"><ele>2.8571428571428568</ele><time>2026-04-09T16:49:11Z</time></trkpt><trkpt lat="43.319033680421086" lon="10.500016018020535"><ele>3.0</ele><time>2026-04-09T16:49:15Z</time></trkpt><trkpt lat="43.318985545722086" lon="10.499937123816991"><ele>2.9999999999999996</ele><time>2026-04-09T16:49:19Z</time></trkpt><trkpt lat="43.31894610645706" lon="10.499866492421877"><ele>3.0</ele><time>2026-04-09T16:49:23Z</time></trkpt><trkpt lat="43.31888103015904" lon="10.499803467406442"><ele>3.0</ele><time>2026-04-09T16:49:27Z</time></trkpt><trkpt lat="43.31880691842926" lon="10.499775712759943"><ele>3.0</ele><time>2026-04-09T16:49:31Z</time></trkpt><trkpt lat="43.31873990864251" lon="10.499755063912335"><ele>3.0</ele><time>2026-04-09T16:49:35Z</time></trkpt><trkpt lat="43.31867068931655" lon="10.499751696382827"><ele>2.9999999999999996</ele><time>2026-04-09T16:49:39Z</time></trkpt><trkpt lat="43.31860189252311" lon="10.499749181321688"><ele>3.0</ele><time>2026-04-09T16:49:43Z</time></trkpt><trkpt lat="43.318536362464215" lon="10.499744336473562"><ele>3.1428571428571423</ele><time>2026-04-09T16:49:47Z</time></trkpt><trkpt lat="43.318459395044044" lon="10.499734299211879"><ele>3.2857142857142856</ele><time>2026-04-09T16:49:51Z</time></trkpt><trkpt lat="43.31839124051313" lon="10.499712996254045"><ele>3.4285714285714284</ele><time>2026-04-09T16:49:55Z</time></trkpt><trkpt lat="43.31833229436557" lon="10.499677377723835"><ele>3.571428571428571</ele><time>2026-04-09T16:49:59Z</time></trkpt><trkpt lat="43.31827106600124" lon="10.499652213388115"><ele>3.714285714285714</ele><time>2026-04-09T16:50:03Z</time></trkpt><trkpt lat="43.31821007184203" lon="10.499619966471586"><ele>3.8571428571428568</ele><time>2026-04-09T16:50:07Z</time></trkpt><trkpt lat="43.31813974666403" lon="10.499567824451864"><ele>4.0</ele><time>2026-04-09T16:50:11Z</time></trkpt><trkpt lat="43.31808302057842" lon="10.499529508564628"><ele>3.8571428571428568</ele><time>2026-04-09T16:50:14Z</time></trkpt><trkpt lat="43.31802117896372" lon="10.499466004007854"><ele>3.714285714285714</ele><time>2026-04-09T16:50:18Z</time></trkpt><trkpt lat="43.31795956019258" lon="10.499412927723581"><ele>3.571428571428571</ele><time>2026-04-09T16:50:21Z</time></trkpt><trkpt lat="43.31791677676803" lon="10.499342928675555"><ele>3.4285714285714284</ele><time>2026-04-09T16:50:24Z</time></trkpt><trkpt lat="43.31787232992666" lon="10.499273980050921"><ele>3.2857142857142856</ele><time>2026-04-09T16:50:27Z</time></trkpt><trkpt lat="43.317817491636205" lon="10.499188172453753"><ele>3.1428571428571423</ele><time>2026-04-09T16:50:31Z</time></trkpt><trkpt lat="43.317770500314545" lon="10.49912218178109"><ele>3.0</ele><time>2026-04-09T16:50:34Z</time></trkpt><trkpt lat="43.317710943884734" lon="10.49905735396006"><ele>2.9999999999999996</ele><time>2026-04-09T16:50:37Z</time></trkpt><trkpt lat="43.31766899493327" lon="10.498983824219867"><ele>3.0</ele><time>2026-04-09T16:50:40Z</time></trkpt><trkpt lat="43.31761623402319" lon="10.498921666529442"><ele>3.0</ele><time>2026-04-09T16:50:43Z</time></trkpt><trkpt lat="43.31757117203411" lon="10.498853057448953"><ele>3.0</ele><time>2026-04-09T16:50:46Z</time></trkpt><trkpt lat="43.31752814123988" lon="10.498782762426373"><ele>3.0</ele><time>2026-04-09T16:50:49Z</time></trkpt><trkpt lat="43.31749152642138" lon="10.498701521906275"><ele>2.9999999999999996</ele><time>2026-04-09T16:50:52Z</time></trkpt><trkpt lat="43.317451387536615" lon="10.49863099572981"><ele>3.0</ele><time>2026-04-09T16:50:55Z</time></trkpt><trkpt lat="43.31740256942345" lon="10.498546692349901"><ele>2.9999999999999996</ele><time>2026-04-09T16:50:59Z</time></trkpt><trkpt lat="43.3173526280413" lon="10.498458329207613"><ele>3.0</ele><time>2026-04-09T16:51:03Z</time></trkpt><trkpt lat="43.31730397674306" lon="10.498398754086118"><ele>3.0</ele><time>2026-04-09T16:51:06Z</time></trkpt><trkpt lat="43.31726216455191" lon="10.498322162108751"><ele>3.0</ele><time>2026-04-09T16:51:09Z</time></trkpt><trkpt lat="43.317252945254" lon="10.498208053615564"><ele>3.0</ele><time>2026-04-09T16:51:13Z</time></trkpt><trkpt lat="43.31727925788674" lon="10.498123151097209"><ele>2.9999999999999996</ele><time>2026-04-09T16:51:16Z</time></trkpt><trkpt lat="43.31730745490634" lon="10.49804557860781"><ele>3.0</ele><time>2026-04-09T16:51:19Z</time></trkpt><trkpt lat="43.317342497912904" lon="10.497953515962942"><ele>2.9999999999999996</ele><time>2026-04-09T16:51:23Z</time></trkpt><trkpt lat="43.31737633269982" lon="10.49787351593655"><ele>3.0</ele><time>2026-04-09T16:51:26Z</time></trkpt><trkpt lat="43.317399237303654" lon="10.497770283391219"><ele>3.0</ele><time>2026-04-09T16:51:30Z</time></trkpt><trkpt lat="43.31739812411616" lon="10.49766153092216"><ele>3.0</ele><time>2026-04-09T16:51:34Z</time></trkpt><trkpt lat="43.31740018689379" lon="10.497569230616808"><ele>3.0</ele><time>2026-04-09T16:51:37Z</time></trkpt><trkpt lat="43.31740268418239" lon="10.497454848128278"><ele>2.9999999999999996</ele><time>2026-04-09T16:51:41Z</time></trkpt><trkpt lat="43.31740111961165" lon="10.497367557927738"><ele>3.0</ele><time>2026-04-09T16:51:44Z</time></trkpt><trkpt lat="43.31739744655979" lon="10.497252854743213"><ele>2.9999999999999996</ele><time>2026-04-09T16:51:48Z</time></trkpt><trkpt lat="43.317378507947105" lon="10.497164003881595"><ele>3.0</ele><time>2026-04-09T16:51:51Z</time></trkpt><trkpt lat="43.31732808136529" lon="10.497072028986752"><ele>3.0</ele><time>2026-04-09T16:51:55Z</time></trkpt><trkpt lat="43.31727398419035" lon="10.496981737338036"><ele>3.0</ele><time>2026-04-09T16:51:59Z</time></trkpt><trkpt lat="43.317231205874506" lon="10.496912613361513"><ele>3.0</ele><time>2026-04-09T16:52:02Z</time></trkpt><trkpt lat="43.31719204532034" lon="10.496837186725159"><ele>2.9999999999999996</ele><time>2026-04-09T16:52:05Z</time></trkpt><trkpt lat="43.317151152120374" lon="10.496767604743457"><ele>3.0</ele><time>2026-04-09T16:52:08Z</time></trkpt><trkpt lat="43.31710244946789" lon="10.496684122334427"><ele>2.8571428571428568</ele><time>2026-04-09T16:52:12Z</time></trkpt><trkpt lat="43.31706055437663" lon="10.496617464267498"><ele>2.7142857142857144</ele><time>2026-04-09T16:52:15Z</time></trkpt><trkpt lat="43.31702306083368" lon="10.496545512417702"><ele>2.571428571428571</ele><time>2026-04-09T16:52:18Z</time></trkpt><trkpt lat="43.31698850873121" lon="10.496473160420106"><ele>2.4285714285714284</ele><time>2026-04-09T16:52:21Z</time></trkpt><trkpt lat="43.316940382479345" lon="10.496387406562823"><ele>2.2857142857142856</ele><time>2026-04-09T16:52:25Z</time></trkpt><trkpt lat="43.31689948231105" lon="10.496317647831965"><ele>2.142857142857143</ele><time>2026-04-09T16:52:28Z</time></trkpt><trkpt lat="43.31685947425911" lon="10.49624742337556"><ele>2.0</ele><time>2026-04-09T16:52:31Z</time></trkpt><trkpt lat="43.31680647490215" lon="10.49615734458065"><ele>1.857142857142857</ele><time>2026-04-09T16:52:35Z</time></trkpt><trkpt lat="43.31676598642573" lon="10.496083842812396"><ele>1.714285714285714</ele><time>2026-04-09T16:52:38Z</time></trkpt><trkpt lat="43.31672093575167" lon="10.496015628642477"><ele>1.5714285714285714</ele><time>2026-04-09T16:52:41Z</time></trkpt><trkpt lat="43.31668056085562" lon="10.49594077396098"><ele>1.4285714285714284</ele><time>2026-04-09T16:52:44Z</time></trkpt><trkpt lat="43.316636214362255" lon="10.495873734165553"><ele>1.2857142857142856</ele><time>2026-04-09T16:52:47Z</time></trkpt><trkpt lat="43.31658856669702" lon="10.495781987292084"><ele>1.1428571428571428</ele><time>2026-04-09T16:52:51Z</time></trkpt><trkpt lat="43.31654993920913" lon="10.495710506340453"><ele>1.0</ele><time>2026-04-09T16:52:54Z</time></trkpt><trkpt lat="43.31650312105815" lon="10.49562205369721"><ele>1.0</ele><time>2026-04-09T16:52:58Z</time></trkpt><trkpt lat="43.316456636428576" lon="10.495551781922169"><ele>0.9999999999999999</ele><time>2026-04-09T16:53:01Z</time></trkpt><trkpt lat="43.316413143805065" lon="10.495478074206144"><ele>1.0</ele><time>2026-04-09T16:53:04Z</time></trkpt><trkpt lat="43.31636195362827" lon="10.495384335044218"><ele>1.0</ele><time>2026-04-09T16:53:08Z</time></trkpt><trkpt lat="43.31632075163997" lon="10.495317135445008"><ele>0.9999999999999999</ele><time>2026-04-09T16:53:11Z</time></trkpt><trkpt lat="43.316275373755225" lon="10.4952295441857"><ele>1.0</ele><time>2026-04-09T16:53:15Z</time></trkpt><trkpt lat="43.31622323979214" lon="10.495141323049106"><ele>1.0</ele><time>2026-04-09T16:53:19Z</time></trkpt><trkpt lat="43.3161767833602" lon="10.495055604392235"><ele>1.1428571428571428</ele><time>2026-04-09T16:53:23Z</time></trkpt><trkpt lat="43.31613125019034" lon="10.494988664432569"><ele>1.2857142857142856</ele><time>2026-04-09T16:53:26Z</time></trkpt><trkpt lat="43.31608305658884" lon="10.494905582416795"><ele>1.4285714285714284</ele><time>2026-04-09T16:53:30Z</time></trkpt><trkpt lat="43.31602681607039" lon="10.494824649709228"><ele>1.5714285714285714</ele><time>2026-04-09T16:53:34Z</time></trkpt><trkpt lat="43.31598385884947" lon="10.494756568990814"><ele>1.714285714285714</ele><time>2026-04-09T16:53:37Z</time></trkpt><trkpt lat="43.31593744554304" lon="10.494672393708823"><ele>1.857142857142857</ele><time>2026-04-09T16:53:41Z</time></trkpt><trkpt lat="43.31589438693746" lon="10.494603708875905"><ele>2.0</ele><time>2026-04-09T16:53:44Z</time></trkpt><trkpt lat="43.3158450152309" lon="10.494511292522015"><ele>2.0</ele><time>2026-04-09T16:53:48Z</time></trkpt><trkpt lat="43.31580247523436" lon="10.49444587369894"><ele>1.9999999999999998</ele><time>2026-04-09T16:53:51Z</time></trkpt><trkpt lat="43.31575074067948" lon="10.494358758693327"><ele>2.0</ele><time>2026-04-09T16:53:55Z</time></trkpt><trkpt lat="43.31570887648905" lon="10.494290927117806"><ele>2.0</ele><time>2026-04-09T16:53:58Z</time></trkpt><trkpt lat="43.31565379621621" lon="10.49420107428378"><ele>1.9999999999999998</ele><time>2026-04-09T16:54:02Z</time></trkpt><trkpt lat="43.31561024881872" lon="10.494131749884968"><ele>2.0</ele><time>2026-04-09T16:54:05Z</time></trkpt><trkpt lat="43.31556637043145" lon="10.494064276702279"><ele>2.0</ele><time>2026-04-09T16:54:08Z</time></trkpt><trkpt lat="43.31552624254531" lon="10.49399181706783"><ele>2.0</ele><time>2026-04-09T16:54:11Z</time></trkpt><trkpt lat="43.31547858989459" lon="10.493896420160572"><ele>1.9999999999999998</ele><time>2026-04-09T16:54:15Z</time></trkpt><trkpt lat="43.31543742604746" lon="10.493823904260939"><ele>2.0</ele><time>2026-04-09T16:54:18Z</time></trkpt><trkpt lat="43.31539043329708" lon="10.4937615899992"><ele>2.0</ele><time>2026-04-09T16:54:20.999Z</time></trkpt><trkpt lat="43.315337721983944" lon="10.4936860281994"><ele>1.9999999999999998</ele><time>2026-04-09T16:54:23.999Z</time></trkpt><trkpt lat="43.315306593872506" lon="10.493585789484818"><ele>2.0</ele><time>2026-04-09T16:54:26.999Z</time></trkpt><trkpt lat="43.31526193599377" lon="10.49351189912835"><ele>2.0</ele><time>2026-04-09T16:54:30Z</time></trkpt><trkpt lat="43.31521175979877" lon="10.493438697351152"><ele>2.0</ele><time>2026-04-09T16:54:33Z</time></trkpt><trkpt lat="43.315168798509724" lon="10.493372112445257"><ele>1.9999999999999998</ele><time>2026-04-09T16:54:36Z</time></trkpt><trkpt lat="43.315129516758276" lon="10.493302787785813"><ele>2.0</ele><time>2026-04-09T16:54:39Z</time></trkpt><trkpt lat="43.31508980975168" lon="10.493232719085356"><ele>2.0</ele><time>2026-04-09T16:54:42Z</time></trkpt><trkpt lat="43.31504466496745" lon="10.493163439522581"><ele>1.9999999999999998</ele><time>2026-04-09T16:54:45Z</time></trkpt><trkpt lat="43.31499850840477" lon="10.493075957945933"><ele>2.0</ele><time>2026-04-09T16:54:49Z</time></trkpt><trkpt lat="43.31495053527151" lon="10.492981838983175"><ele>2.0</ele><time>2026-04-09T16:54:53Z</time></trkpt><trkpt lat="43.314899941154266" lon="10.492899836786007"><ele>2.0</ele><time>2026-04-09T16:54:57Z</time></trkpt><trkpt lat="43.31486100769445" lon="10.492830783627522"><ele>1.9999999999999998</ele><time>2026-04-09T16:55:00Z</time></trkpt><trkpt lat="43.314818012371894" lon="10.492764269989243"><ele>2.0</ele><time>2026-04-09T16:55:03Z</time></trkpt><trkpt lat="43.31477806101173" lon="10.492695474573603"><ele>2.0</ele><time>2026-04-09T16:55:06Z</time></trkpt><trkpt lat="43.31472733183222" lon="10.492611247363465"><ele>1.9999999999999998</ele><time>2026-04-09T16:55:10Z</time></trkpt><trkpt lat="43.31467511281081" lon="10.492519737321508"><ele>2.0</ele><time>2026-04-09T16:55:14Z</time></trkpt><trkpt lat="43.3146337487307" lon="10.492449155759095"><ele>2.0</ele><time>2026-04-09T16:55:17Z</time></trkpt><trkpt lat="43.314584888108314" lon="10.492361514254123"><ele>2.0</ele><time>2026-04-09T16:55:21Z</time></trkpt><trkpt lat="43.314534823573574" lon="10.492277731045075"><ele>1.9999999999999998</ele><time>2026-04-09T16:55:25Z</time></trkpt><trkpt lat="43.314483169443164" lon="10.49218914957177"><ele>2.0</ele><time>2026-04-09T16:55:29Z</time></trkpt><trkpt lat="43.314439897158444" lon="10.492120992913318"><ele>2.0</ele><time>2026-04-09T16:55:32Z</time></trkpt><trkpt lat="43.31440183170982" lon="10.4920509563543"><ele>1.9999999999999998</ele><time>2026-04-09T16:55:35Z</time></trkpt><trkpt lat="43.31434799359062" lon="10.491959428578179"><ele>2.0</ele><time>2026-04-09T16:55:39Z</time></trkpt><trkpt lat="43.31430176938393" lon="10.491889256408667"><ele>2.0</ele><time>2026-04-09T16:55:42Z</time></trkpt><trkpt lat="43.31425649776072" lon="10.491816922973015"><ele>2.0</ele><time>2026-04-09T16:55:45Z</time></trkpt><trkpt lat="43.31421461654558" lon="10.491746848377817"><ele>1.9999999999999998</ele><time>2026-04-09T16:55:48Z</time></trkpt><trkpt lat="43.314168206633695" lon="10.49167612308149"><ele>2.0</ele><time>2026-04-09T16:55:51Z</time></trkpt><trkpt lat="43.314118093041635" lon="10.491586692872056"><ele>2.0</ele><time>2026-04-09T16:55:55Z</time></trkpt><trkpt lat="43.31407208427858" lon="10.491518491763316"><ele>1.9999999999999998</ele><time>2026-04-09T16:55:58Z</time></trkpt><trkpt lat="43.314023185951164" lon="10.491432615550256"><ele>2.0</ele><time>2026-04-09T16:56:02Z</time></trkpt><trkpt lat="43.31397602367334" lon="10.49136245622347"><ele>2.0</ele><time>2026-04-09T16:56:05Z</time></trkpt><trkpt lat="43.31392884793374" lon="10.4912729961463"><ele>2.1666666666666665</ele><time>2026-04-09T16:56:09Z</time></trkpt><trkpt lat="43.31387887203592" lon="10.491184760560008"><ele>2.333333333333333</ele><time>2026-04-09T16:56:13Z</time></trkpt><trkpt lat="43.31383851624734" lon="10.491110736205215"><ele>2.5</ele><time>2026-04-09T16:56:16Z</time></trkpt><trkpt lat="43.31379072888212" lon="10.49102095811643"><ele>2.6666666666666665</ele><time>2026-04-09T16:56:20Z</time></trkpt><trkpt lat="43.313743123015904" lon="10.490935751282413"><ele>2.8333333333333335</ele><time>2026-04-09T16:56:24Z</time></trkpt><trkpt lat="43.313692104288286" lon="10.490846959001837"><ele>3.0</ele><time>2026-04-09T16:56:28Z</time></trkpt><trkpt lat="43.31364951200014" lon="10.490773679173968"><ele>2.9999999999999996</ele><time>2026-04-09T16:56:31Z</time></trkpt><trkpt lat="43.31361738323792" lon="10.490695037316716"><ele>3.0</ele><time>2026-04-09T16:56:34Z</time></trkpt><trkpt lat="43.31357084382497" lon="10.490607908760907"><ele>3.0</ele><time>2026-04-09T16:56:38Z</time></trkpt><trkpt lat="43.3135185052564" lon="10.490519758451684"><ele>3.0</ele><time>2026-04-09T16:56:42Z</time></trkpt><trkpt lat="43.31347557280781" lon="10.490450213182362"><ele>3.0</ele><time>2026-04-09T16:56:45Z</time></trkpt><trkpt lat="43.313420694967846" lon="10.490363716763492"><ele>2.9999999999999996</ele><time>2026-04-09T16:56:49Z</time></trkpt><trkpt lat="43.313373755839066" lon="10.490295109608898"><ele>3.0</ele><time>2026-04-09T16:56:52Z</time></trkpt><trkpt lat="43.31332018585979" lon="10.490209350507268"><ele>2.8571428571428568</ele><time>2026-04-09T16:56:56Z</time></trkpt><trkpt lat="43.31328075832459" lon="10.490137309971795"><ele>2.7142857142857144</ele><time>2026-04-09T16:56:59Z</time></trkpt><trkpt lat="43.31322764338131" lon="10.490052090324287"><ele>2.571428571428571</ele><time>2026-04-09T16:57:03Z</time></trkpt><trkpt lat="43.31316961168381" lon="10.489962724872234"><ele>2.4285714285714284</ele><time>2026-04-09T16:57:07Z</time></trkpt><trkpt lat="43.31311756584191" lon="10.489872393695604"><ele>2.2857142857142856</ele><time>2026-04-09T16:57:11Z</time></trkpt><trkpt lat="43.31307570889216" lon="10.489803787580158"><ele>2.142857142857143</ele><time>2026-04-09T16:57:14Z</time></trkpt><trkpt lat="43.31303770564006" lon="10.489731966120885"><ele>2.0</ele><time>2026-04-09T16:57:17Z</time></trkpt><trkpt lat="43.312994714826885" lon="10.489663560294852"><ele>1.5714285714285714</ele><time>2026-04-09T16:57:20Z</time></trkpt><trkpt lat="43.3129534012362" lon="10.489592262650012"><ele>1.1428571428571428</ele><time>2026-04-09T16:57:23Z</time></trkpt><trkpt lat="43.312912170801866" lon="10.489526001696326"><ele>0.7142857142857142</ele><time>2026-04-09T16:57:26Z</time></trkpt><trkpt lat="43.31287025121599" lon="10.48945538835867"><ele>0.2857142857142857</ele><time>2026-04-09T16:57:29Z</time></trkpt><trkpt lat="43.31282285308185" lon="10.489362271284874"><ele>-0.1428571428571428</ele><time>2026-04-09T16:57:33Z</time></trkpt><trkpt lat="43.31278084836394" lon="10.489288581516462"><ele>-0.5714285714285714</ele><time>2026-04-09T16:57:36Z</time></trkpt><trkpt lat="43.3127312108439" lon="10.48920148216397"><ele>-1.0</ele><time>2026-04-09T16:57:40Z</time></trkpt><trkpt lat="43.31269343032161" lon="10.48913026864403"><ele>-1.0</ele><time>2026-04-09T16:57:43Z</time></trkpt><trkpt lat="43.31264688936457" lon="10.489061720315243"><ele>-0.9999999999999999</ele><time>2026-04-09T16:57:46Z</time></trkpt><trkpt lat="43.3126090736086" lon="10.488990023981586"><ele>-1.0</ele><time>2026-04-09T16:57:49Z</time></trkpt><trkpt lat="43.31256276484729" lon="10.488902741415185"><ele>-1.0</ele><time>2026-04-09T16:57:53Z</time></trkpt><trkpt lat="43.31252155762547" lon="10.488835097519443"><ele>-0.9999999999999999</ele><time>2026-04-09T16:57:56Z</time></trkpt><trkpt lat="43.31247914440735" lon="10.488768451255053"><ele>-1.0</ele><time>2026-04-09T16:57:59Z</time></trkpt><trkpt lat="43.3124422560233" lon="10.488695240766608"><ele>-1.0</ele><time>2026-04-09T16:58:02Z</time></trkpt><trkpt lat="43.31238889271159" lon="10.488603298438884"><ele>-0.9999999999999999</ele><time>2026-04-09T16:58:06Z</time></trkpt><trkpt lat="43.31233529761859" lon="10.48852032929778"><ele>-1.0</ele><time>2026-04-09T16:58:10Z</time></trkpt><trkpt lat="43.312293362782874" lon="10.488452128174023"><ele>-1.0</ele><time>2026-04-09T16:58:13Z</time></trkpt><trkpt lat="43.31225043933763" lon="10.488381857206072"><ele>-1.0</ele><time>2026-04-09T16:58:16Z</time></trkpt><trkpt lat="43.31219559593538" lon="10.488291663560231"><ele>-0.9999999999999999</ele><time>2026-04-09T16:58:20Z</time></trkpt><trkpt lat="43.312144979851745" lon="10.48819903969491"><ele>-1.0</ele><time>2026-04-09T16:58:24Z</time></trkpt><trkpt lat="43.3120978495342" lon="10.488126584542382"><ele>-0.8333333333333333</ele><time>2026-04-09T16:58:27Z</time></trkpt><trkpt lat="43.31205605764292" lon="10.48804358094453"><ele>-0.6666666666666666</ele><time>2026-04-09T16:58:31Z</time></trkpt><trkpt lat="43.31199472834525" lon="10.487952534985832"><ele>-0.5</ele><time>2026-04-09T16:58:35Z</time></trkpt><trkpt lat="43.311950889472" lon="10.487870905415905"><ele>-0.3333333333333333</ele><time>2026-04-09T16:58:39Z</time></trkpt><trkpt lat="43.31190513137179" lon="10.487801831314044"><ele>-0.16666666666666666</ele><time>2026-04-09T16:58:42Z</time></trkpt><trkpt lat="43.31185634200405" lon="10.487712691145948"><ele>0.0</ele><time>2026-04-09T16:58:46Z</time></trkpt><trkpt lat="43.311804892815765" lon="10.487625998952764"><ele>0.0</ele><time>2026-04-09T16:58:50Z</time></trkpt><trkpt lat="43.31175806819305" lon="10.487560149528191"><ele>0.0</ele><time>2026-04-09T16:58:53Z</time></trkpt><trkpt lat="43.311717992794556" lon="10.487486795667985"><ele>0.0</ele><time>2026-04-09T16:58:56Z</time></trkpt><trkpt lat="43.31166844924951" lon="10.487398675484958"><ele>0.0</ele><time>2026-04-09T16:59:00Z</time></trkpt><trkpt lat="43.31162664858758" lon="10.48732780181466"><ele>0.0</ele><time>2026-04-09T16:59:03Z</time></trkpt><trkpt lat="43.311594724433995" lon="10.487251206919776"><ele>0.0</ele><time>2026-04-09T16:59:06Z</time></trkpt><trkpt lat="43.31155602954982" lon="10.48717845892441"><ele>0.0</ele><time>2026-04-09T16:59:09Z</time></trkpt><trkpt lat="43.311504377368216" lon="10.48709698120922"><ele>0.16666666666666666</ele><time>2026-04-09T16:59:13Z</time></trkpt><trkpt lat="43.31142870364412" lon="10.487042602676262"><ele>0.3333333333333333</ele><time>2026-04-09T16:59:17Z</time></trkpt><trkpt lat="43.311346116646995" lon="10.487024521997705"><ele>0.5</ele><time>2026-04-09T16:59:21Z</time></trkpt><trkpt lat="43.31127886730766" lon="10.487015770697512"><ele>0.6666666666666666</ele><time>2026-04-09T16:59:24Z</time></trkpt><trkpt lat="43.31120163619417" lon="10.487018865530104"><ele>0.8333333333333333</ele><time>2026-04-09T16:59:28Z</time></trkpt><trkpt lat="43.31112741014204" lon="10.487049325871286"><ele>1.0</ele><time>2026-04-09T16:59:31Z</time></trkpt><trkpt lat="43.311056692916694" lon="10.487080857403164"><ele>0.8571428571428571</ele><time>2026-04-09T16:59:34Z</time></trkpt><trkpt lat="43.310987212165145" lon="10.487119371108705"><ele>0.7142857142857142</ele><time>2026-04-09T16:59:37Z</time></trkpt><trkpt lat="43.31091740434408" lon="10.487147130782885"><ele>0.5714285714285714</ele><time>2026-04-09T16:59:40Z</time></trkpt><trkpt lat="43.31085474804782" lon="10.487186193056909"><ele>0.42857142857142855</ele><time>2026-04-09T16:59:43Z</time></trkpt><trkpt lat="43.31078619945296" lon="10.487240492837632"><ele>0.2857142857142857</ele><time>2026-04-09T16:59:47Z</time></trkpt><trkpt lat="43.31072928511073" lon="10.487294316808725"><ele>0.14285714285714285</ele><time>2026-04-09T16:59:50Z</time></trkpt><trkpt lat="43.310673301682044" lon="10.487343875364495"><ele>0.0</ele><time>2026-04-09T16:59:53Z</time></trkpt><trkpt lat="43.310615188732015" lon="10.487379374732448"><ele>0.14285714285714285</ele><time>2026-04-09T16:59:56Z</time></trkpt><trkpt lat="43.31055875296443" lon="10.48743957479998"><ele>0.2857142857142857</ele><time>2026-04-09T16:59:59Z</time></trkpt><trkpt lat="43.31048661831706" lon="10.487502721434522"><ele>0.42857142857142855</ele><time>2026-04-09T17:00:03Z</time></trkpt><trkpt lat="43.310432272553776" lon="10.487561201114136"><ele>0.5714285714285714</ele><time>2026-04-09T17:00:06Z</time></trkpt><trkpt lat="43.310378904780976" lon="10.487617767063222"><ele>0.7142857142857142</ele><time>2026-04-09T17:00:09Z</time></trkpt><trkpt lat="43.31032612596034" lon="10.487672578981405"><ele>0.8571428571428571</ele><time>2026-04-09T17:00:12Z</time></trkpt><trkpt lat="43.31026946355564" lon="10.48772448284697"><ele>1.0</ele><time>2026-04-09T17:00:15Z</time></trkpt><trkpt lat="43.31019414854426" lon="10.48778540541614"><ele>1.0</ele><time>2026-04-09T17:00:19Z</time></trkpt><trkpt lat="43.3101401687993" lon="10.487837463399321"><ele>0.9999999999999999</ele><time>2026-04-09T17:00:22Z</time></trkpt><trkpt lat="43.31008602623605" lon="10.487881666354305"><ele>1.0</ele><time>2026-04-09T17:00:25Z</time></trkpt><trkpt lat="43.31002514664077" lon="10.487911060049893"><ele>1.0</ele><time>2026-04-09T17:00:28Z</time></trkpt><trkpt lat="43.3099741430389" lon="10.487963228080826"><ele>0.9999999999999999</ele><time>2026-04-09T17:00:31Z</time></trkpt><trkpt lat="43.30991814595205" lon="10.488014387469974"><ele>1.0</ele><time>2026-04-09T17:00:34Z</time></trkpt><trkpt lat="43.309862552949504" lon="10.488066814872525"><ele>1.0</ele><time>2026-04-09T17:00:37Z</time></trkpt><trkpt lat="43.309808957371274" lon="10.48811534554476"><ele>0.8571428571428571</ele><time>2026-04-09T17:00:40Z</time></trkpt><trkpt lat="43.309738735241915" lon="10.488182300921368"><ele>0.7142857142857142</ele><time>2026-04-09T17:00:44Z</time></trkpt><trkpt lat="43.30968650173981" lon="10.488238159082922"><ele>0.5714285714285714</ele><time>2026-04-09T17:00:47Z</time></trkpt><trkpt lat="43.309629584791445" lon="10.488293734146605"><ele>0.42857142857142855</ele><time>2026-04-09T17:00:50Z</time></trkpt><trkpt lat="43.30957787309565" lon="10.488347833100965"><ele>0.2857142857142857</ele><time>2026-04-09T17:00:53Z</time></trkpt><trkpt lat="43.30952256451483" lon="10.488398112640366"><ele>0.14285714285714285</ele><time>2026-04-09T17:00:56Z</time></trkpt><trkpt lat="43.3094531516565" lon="10.488453783847628"><ele>0.0</ele><time>2026-04-09T17:01:00Z</time></trkpt><trkpt lat="43.30939196695733" lon="10.488503457463784"><ele>0.0</ele><time>2026-04-09T17:01:03Z</time></trkpt><trkpt lat="43.30932007369502" lon="10.488564722143847"><ele>0.0</ele><time>2026-04-09T17:01:07Z</time></trkpt><trkpt lat="43.309262780204634" lon="10.488616798362163"><ele>0.0</ele><time>2026-04-09T17:01:10Z</time></trkpt><trkpt lat="43.309208413414275" lon="10.488664822754053"><ele>0.0</ele><time>2026-04-09T17:01:13Z</time></trkpt><trkpt lat="43.30915163758563" lon="10.488714596306838"><ele>0.0</ele><time>2026-04-09T17:01:16Z</time></trkpt><trkpt lat="43.30909598508262" lon="10.488764071920334"><ele>0.0</ele><time>2026-04-09T17:01:19Z</time></trkpt><trkpt lat="43.309038219687146" lon="10.488822659694065"><ele>0.0</ele><time>2026-04-09T17:01:22Z</time></trkpt><trkpt lat="43.308970612517626" lon="10.488882552383226"><ele>0.14285714285714285</ele><time>2026-04-09T17:01:26Z</time></trkpt><trkpt lat="43.30889183046469" lon="10.488925417327772"><ele>0.2857142857142857</ele><time>2026-04-09T17:01:30Z</time></trkpt><trkpt lat="43.308839989579006" lon="10.48898220363311"><ele>0.42857142857142855</ele><time>2026-04-09T17:01:33Z</time></trkpt><trkpt lat="43.30878604504463" lon="10.489041142806057"><ele>0.5714285714285714</ele><time>2026-04-09T17:01:36Z</time></trkpt><trkpt lat="43.30872761490073" lon="10.489087979423708"><ele>0.7142857142857142</ele><time>2026-04-09T17:01:39Z</time></trkpt><trkpt lat="43.30867371713726" lon="10.489152710848183"><ele>0.8571428571428571</ele><time>2026-04-09T17:01:42Z</time></trkpt><trkpt lat="43.30860522819253" lon="10.489216109745023"><ele>1.0</ele><time>2026-04-09T17:01:46Z</time></trkpt><trkpt lat="43.30855383473269" lon="10.489266973250649"><ele>1.0</ele><time>2026-04-09T17:01:49Z</time></trkpt><trkpt lat="43.308499058552535" lon="10.48932148977048"><ele>0.9999999999999999</ele><time>2026-04-09T17:01:52Z</time></trkpt><trkpt lat="43.30844922628429" lon="10.489374442168636"><ele>1.0</ele><time>2026-04-09T17:01:55Z</time></trkpt><trkpt lat="43.30838934903002" lon="10.489428710243859"><ele>1.0</ele><time>2026-04-09T17:01:58Z</time></trkpt><trkpt lat="43.30831836407415" lon="10.489481978158533"><ele>0.9999999999999999</ele><time>2026-04-09T17:02:02Z</time></trkpt><trkpt lat="43.30824923340117" lon="10.489530850524256"><ele>1.0</ele><time>2026-04-09T17:02:05Z</time></trkpt><trkpt lat="43.30818713068267" lon="10.489568298816256"><ele>1.0</ele><time>2026-04-09T17:02:08Z</time></trkpt><trkpt lat="43.30811332428381" lon="10.489631901313011"><ele>1.4285714285714284</ele><time>2026-04-09T17:02:12Z</time></trkpt><trkpt lat="43.30805597935787" lon="10.489672154679585"><ele>1.857142857142857</ele><time>2026-04-09T17:02:15Z</time></trkpt><trkpt lat="43.30800138646728" lon="10.489718009499116"><ele>2.2857142857142856</ele><time>2026-04-09T17:02:18Z</time></trkpt><trkpt lat="43.307942300959034" lon="10.48977632232182"><ele>2.714285714285714</ele><time>2026-04-09T17:02:21Z</time></trkpt><trkpt lat="43.30788745321522" lon="10.489820497384477"><ele>3.1428571428571423</ele><time>2026-04-09T17:02:24Z</time></trkpt><trkpt lat="43.307828933201954" lon="10.48987413183806"><ele>3.571428571428571</ele><time>2026-04-09T17:02:27Z</time></trkpt><trkpt lat="43.30775694971371" lon="10.4899316805728"><ele>4.0</ele><time>2026-04-09T17:02:31Z</time></trkpt><trkpt lat="43.30768597692913" lon="10.489978418297719"><ele>4.0</ele><time>2026-04-09T17:02:35Z</time></trkpt><trkpt lat="43.30762832900655" lon="10.490019839174192"><ele>3.9999999999999996</ele><time>2026-04-09T17:02:38Z</time></trkpt><trkpt lat="43.3075717482744" lon="10.490072865375655"><ele>4.0</ele><time>2026-04-09T17:02:41Z</time></trkpt><trkpt lat="43.30751365119419" lon="10.490132180937131"><ele>4.0</ele><time>2026-04-09T17:02:44Z</time></trkpt><trkpt lat="43.30746172657497" lon="10.490185286889066"><ele>3.9999999999999996</ele><time>2026-04-09T17:02:47Z</time></trkpt><trkpt lat="43.30740387051193" lon="10.490237807911782"><ele>4.0</ele><time>2026-04-09T17:02:50Z</time></trkpt><trkpt lat="43.30734248634774" lon="10.490312599057788"><ele>4.0</ele><time>2026-04-09T17:02:54Z</time></trkpt><trkpt lat="43.30728465565901" lon="10.49036486687746"><ele>3.8571428571428568</ele><time>2026-04-09T17:02:57Z</time></trkpt><trkpt lat="43.307223129290676" lon="10.490413798438173"><ele>3.714285714285714</ele><time>2026-04-09T17:03:00Z</time></trkpt><trkpt lat="43.30716135876153" lon="10.490470286915984"><ele>3.571428571428571</ele><time>2026-04-09T17:03:03Z</time></trkpt><trkpt lat="43.30709648134816" lon="10.490515442188588"><ele>3.4285714285714284</ele><time>2026-04-09T17:03:06Z</time></trkpt><trkpt lat="43.3070424395477" lon="10.49056114565682"><ele>3.2857142857142856</ele><time>2026-04-09T17:03:09Z</time></trkpt><trkpt lat="43.30698424467509" lon="10.490613384049317"><ele>3.1428571428571423</ele><time>2026-04-09T17:03:12Z</time></trkpt><trkpt lat="43.30692460892376" lon="10.490654843002078"><ele>3.0</ele><time>2026-04-09T17:03:15Z</time></trkpt><trkpt lat="43.30686442636191" lon="10.490705274247402"><ele>2.9999999999999996</ele><time>2026-04-09T17:03:18Z</time></trkpt><trkpt lat="43.306806477419144" lon="10.490764828069794"><ele>3.0</ele><time>2026-04-09T17:03:21Z</time></trkpt><trkpt lat="43.306749489107865" lon="10.490812437117315"><ele>3.0</ele><time>2026-04-09T17:03:24Z</time></trkpt><trkpt lat="43.3066932706784" lon="10.490862807552203"><ele>3.0</ele><time>2026-04-09T17:03:27Z</time></trkpt><trkpt lat="43.30663057133241" lon="10.490915138330251"><ele>3.0</ele><time>2026-04-09T17:03:30Z</time></trkpt><trkpt lat="43.30657619277925" lon="10.4909685319014"><ele>2.9999999999999996</ele><time>2026-04-09T17:03:33Z</time></trkpt><trkpt lat="43.30652292413507" lon="10.491026613091979"><ele>3.0</ele><time>2026-04-09T17:03:36Z</time></trkpt><trkpt lat="43.30646257007726" lon="10.491081960701763"><ele>2.8571428571428568</ele><time>2026-04-09T17:03:39Z</time></trkpt><trkpt lat="43.306403905566704" lon="10.49113557653332"><ele>2.7142857142857144</ele><time>2026-04-09T17:03:42Z</time></trkpt><trkpt lat="43.30634568726233" lon="10.491186649949345"><ele>2.571428571428571</ele><time>2026-04-09T17:03:45Z</time></trkpt><trkpt lat="43.30628645572978" lon="10.491236036118549"><ele>2.4285714285714284</ele><time>2026-04-09T17:03:48Z</time></trkpt><trkpt lat="43.306234053013256" lon="10.491286663338697"><ele>2.2857142857142856</ele><time>2026-04-09T17:03:51Z</time></trkpt><trkpt lat="43.3061760673319" lon="10.491337432158607"><ele>2.142857142857143</ele><time>2026-04-09T17:03:54Z</time></trkpt><trkpt lat="43.30610407448143" lon="10.49139694361866"><ele>2.0</ele><time>2026-04-09T17:03:58Z</time></trkpt><trkpt lat="43.306030843995984" lon="10.491458225911131"><ele>1.857142857142857</ele><time>2026-04-09T17:04:02Z</time></trkpt><trkpt lat="43.30597282152576" lon="10.491511066181333"><ele>1.714285714285714</ele><time>2026-04-09T17:04:05Z</time></trkpt><trkpt lat="43.30591377100571" lon="10.49156716846213"><ele>1.5714285714285714</ele><time>2026-04-09T17:04:08Z</time></trkpt><trkpt lat="43.305855982093824" lon="10.49161576090822"><ele>1.4285714285714284</ele><time>2026-04-09T17:04:11Z</time></trkpt><trkpt lat="43.30579643399718" lon="10.491667372024354"><ele>1.2857142857142856</ele><time>2026-04-09T17:04:14Z</time></trkpt><trkpt lat="43.30573672039862" lon="10.491723381840876"><ele>1.1428571428571428</ele><time>2026-04-09T17:04:17Z</time></trkpt><trkpt lat="43.305678896079705" lon="10.491772142847218"><ele>1.0</ele><time>2026-04-09T17:04:20Z</time></trkpt><trkpt lat="43.305619880652046" lon="10.491828954766012"><ele>0.8571428571428571</ele><time>2026-04-09T17:04:23Z</time></trkpt><trkpt lat="43.305556659915965" lon="10.491863236694488"><ele>0.7142857142857142</ele><time>2026-04-09T17:04:26Z</time></trkpt><trkpt lat="43.30551541281407" lon="10.491931220101435"><ele>0.5714285714285714</ele><time>2026-04-09T17:04:29Z</time></trkpt><trkpt lat="43.30545516748823" lon="10.491987445811393"><ele>0.42857142857142855</ele><time>2026-04-09T17:04:32Z</time></trkpt><trkpt lat="43.30539826375007" lon="10.492036759124941"><ele>0.2857142857142857</ele><time>2026-04-09T17:04:35Z</time></trkpt><trkpt lat="43.305328005307935" lon="10.492094717450726"><ele>0.14285714285714285</ele><time>2026-04-09T17:04:39Z</time></trkpt><trkpt lat="43.305275152648576" lon="10.492144918343211"><ele>0.0</ele><time>2026-04-09T17:04:42Z</time></trkpt><trkpt lat="43.305207053937046" lon="10.492198027436645"><ele>0.0</ele><time>2026-04-09T17:04:46Z</time></trkpt><trkpt lat="43.30514992592574" lon="10.492254844369528"><ele>0.0</ele><time>2026-04-09T17:04:49Z</time></trkpt><trkpt lat="43.30508228953968" lon="10.492317103601163"><ele>0.0</ele><time>2026-04-09T17:04:53Z</time></trkpt><trkpt lat="43.30502434854542" lon="10.492388194839311"><ele>0.0</ele><time>2026-04-09T17:04:57Z</time></trkpt><trkpt lat="43.30496269968541" lon="10.492459011811"><ele>0.0</ele><time>2026-04-09T17:05:01Z</time></trkpt><trkpt lat="43.30490034976113" lon="10.492504914139202"><ele>0.0</ele><time>2026-04-09T17:05:04Z</time></trkpt><trkpt lat="43.304838149974344" lon="10.492571187392464"><ele>0.0</ele><time>2026-04-09T17:05:08Z</time></trkpt><trkpt lat="43.30478130715526" lon="10.49261583537001"><ele>0.0</ele><time>2026-04-09T17:05:11Z</time></trkpt><trkpt lat="43.30472047190198" lon="10.492665009353894"><ele>0.0</ele><time>2026-04-09T17:05:14Z</time></trkpt><trkpt lat="43.30464485424699" lon="10.49271859018653"><ele>0.0</ele><time>2026-04-09T17:05:18Z</time></trkpt><trkpt lat="43.304585909368015" lon="10.49275311840958"><ele>0.0</ele><time>2026-04-09T17:05:21Z</time></trkpt><trkpt lat="43.304529572676245" lon="10.492817015266798"><ele>0.0</ele><time>2026-04-09T17:05:26Z</time></trkpt><trkpt lat="43.30446296591213" lon="10.492884858112"><ele>0.0</ele><time>2026-04-09T17:05:31Z</time></trkpt><trkpt lat="43.30440355203606" lon="10.492934038077477"><ele>0.0</ele><time>2026-04-09T17:05:34Z</time></trkpt><trkpt lat="43.30433939431383" lon="10.49298314336818"><ele>0.0</ele><time>2026-04-09T17:05:37Z</time></trkpt><trkpt lat="43.304278575075756" lon="10.493032457593305"><ele>0.0</ele><time>2026-04-09T17:05:40Z</time></trkpt><trkpt lat="43.30420625591395" lon="10.493094519172077"><ele>0.0</ele><time>2026-04-09T17:05:44Z</time></trkpt><trkpt lat="43.30413026747999" lon="10.493148452654234"><ele>0.0</ele><time>2026-04-09T17:05:47Z</time></trkpt><trkpt lat="43.30406578534903" lon="10.493211707913256"><ele>0.0</ele><time>2026-04-09T17:05:51Z</time></trkpt><trkpt lat="43.304002359246034" lon="10.493273138005708"><ele>0.0</ele><time>2026-04-09T17:05:55Z</time></trkpt><trkpt lat="43.30393348830768" lon="10.493312287808548"><ele>0.0</ele><time>2026-04-09T17:05:58Z</time></trkpt><trkpt lat="43.30386453554075" lon="10.493364076243157"><ele>0.0</ele><time>2026-04-09T17:06:01Z</time></trkpt><trkpt lat="43.3038003272288" lon="10.493421287112712"><ele>0.0</ele><time>2026-04-09T17:06:04Z</time></trkpt><trkpt lat="43.30373921507953" lon="10.493462286587082"><ele>0.0</ele><time>2026-04-09T17:06:07Z</time></trkpt><trkpt lat="43.30367579318282" lon="10.493505192005893"><ele>0.0</ele><time>2026-04-09T17:06:10Z</time></trkpt><trkpt lat="43.30361792334635" lon="10.493548971694134"><ele>0.0</ele><time>2026-04-09T17:06:13Z</time></trkpt><trkpt lat="43.30355724052346" lon="10.493609154156148"><ele>0.16666666666666666</ele><time>2026-04-09T17:06:17Z</time></trkpt><trkpt lat="43.303492227445986" lon="10.493664078947452"><ele>0.3333333333333333</ele><time>2026-04-09T17:06:21Z</time></trkpt><trkpt lat="43.30342784602298" lon="10.49371498143114"><ele>0.5</ele><time>2026-04-09T17:06:25Z</time></trkpt><trkpt lat="43.303372788437926" lon="10.49376157790909"><ele>0.6666666666666666</ele><time>2026-04-09T17:06:28Z</time></trkpt><trkpt lat="43.30334603462154" lon="10.493875042810654"><ele>0.8333333333333333</ele><time>2026-04-09T17:06:38Z</time></trkpt><trkpt lat="43.30336013779352" lon="10.493976677801584"><ele>1.0</ele><time>2026-04-09T17:06:41Z</time></trkpt><trkpt lat="43.303372529277915" lon="10.49408740957789"><ele>1.1666666666666665</ele><time>2026-04-09T17:06:44Z</time></trkpt><trkpt lat="43.3033904687237" lon="10.494191232585372"><ele>1.3333333333333333</ele><time>2026-04-09T17:06:47Z</time></trkpt><trkpt lat="43.30340712035825" lon="10.494304056198594"><ele>1.5</ele><time>2026-04-09T17:06:50Z</time></trkpt><trkpt lat="43.303427342105515" lon="10.494408595073983"><ele>1.6666666666666665</ele><time>2026-04-09T17:06:53Z</time></trkpt><trkpt lat="43.30344617128277" lon="10.494508742908412"><ele>1.8333333333333333</ele><time>2026-04-09T17:06:56Z</time></trkpt><trkpt lat="43.30347020092002" lon="10.494609229332518"><ele>2.0</ele><time>2026-04-09T17:06:59Z</time></trkpt><trkpt lat="43.30349708681064" lon="10.494722265028793"><ele>2.142857142857143</ele><time>2026-04-09T17:07:03Z</time></trkpt><trkpt lat="43.30351477353502" lon="10.494818517349534"><ele>2.2857142857142856</ele><time>2026-04-09T17:07:06Z</time></trkpt><trkpt lat="43.30353591991751" lon="10.494908827619842"><ele>2.4285714285714284</ele><time>2026-04-09T17:07:09Z</time></trkpt><trkpt lat="43.30356134084402" lon="10.495010709076489"><ele>2.571428571428571</ele><time>2026-04-09T17:07:13Z</time></trkpt><trkpt lat="43.30358619610502" lon="10.495094523925816"><ele>2.7142857142857144</ele><time>2026-04-09T17:07:16Z</time></trkpt><trkpt lat="43.30361334328517" lon="10.495200956456966"><ele>2.8571428571428568</ele><time>2026-04-09T17:07:20Z</time></trkpt><trkpt lat="43.30363794397278" lon="10.49528913218275"><ele>3.0</ele><time>2026-04-09T17:07:23Z</time></trkpt><trkpt lat="43.3036722480243" lon="10.49537048767611"><ele>3.1428571428571423</ele><time>2026-04-09T17:07:26Z</time></trkpt><trkpt lat="43.303701122689894" lon="10.495451732483227"><ele>3.2857142857142856</ele><time>2026-04-09T17:07:29Z</time></trkpt><trkpt lat="43.30374505107612" lon="10.495533467789373"><ele>3.4285714285714284</ele><time>2026-04-09T17:07:32Z</time></trkpt><trkpt lat="43.303779458682435" lon="10.495615786436472"><ele>3.571428571428571</ele><time>2026-04-09T17:07:35Z</time></trkpt><trkpt lat="43.303815616896095" lon="10.495693922550876"><ele>3.714285714285714</ele><time>2026-04-09T17:07:38Z</time></trkpt><trkpt lat="43.30385774409348" lon="10.495778122305968"><ele>3.8571428571428568</ele><time>2026-04-09T17:07:41Z</time></trkpt><trkpt lat="43.30389364151946" lon="10.495856187361232"><ele>4.0</ele><time>2026-04-09T17:07:44Z</time></trkpt><trkpt lat="43.303931190192436" lon="10.495942044658449"><ele>4.0</ele><time>2026-04-09T17:07:47Z</time></trkpt><trkpt lat="43.30396946143319" lon="10.496012047602184"><ele>3.9999999999999996</ele><time>2026-04-09T17:07:50Z</time></trkpt><trkpt lat="43.3040098735787" lon="10.496090704505562"><ele>4.0</ele><time>2026-04-09T17:07:53Z</time></trkpt><trkpt lat="43.30404814973304" lon="10.496169109657354"><ele>4.0</ele><time>2026-04-09T17:07:56Z</time></trkpt><trkpt lat="43.304094102143026" lon="10.496238924410559"><ele>3.9999999999999996</ele><time>2026-04-09T17:08:00Z</time></trkpt><trkpt lat="43.30413442274948" lon="10.496311643767188"><ele>4.0</ele><time>2026-04-09T17:08:03Z</time></trkpt><trkpt lat="43.30419169758394" lon="10.496394372154612"><ele>4.0</ele><time>2026-04-09T17:08:07Z</time></trkpt><trkpt lat="43.304250975579386" lon="10.496461973142663"><ele>4.142857142857142</ele><time>2026-04-09T17:08:10Z</time></trkpt><trkpt lat="43.30431131744326" lon="10.49652049493051"><ele>4.285714285714286</ele><time>2026-04-09T17:08:13Z</time></trkpt><trkpt lat="43.30436456078371" lon="10.496612431410801"><ele>4.428571428571429</ele><time>2026-04-09T17:08:16Z</time></trkpt><trkpt lat="43.304402170855106" lon="10.496684491952944"><ele>4.571428571428571</ele><time>2026-04-09T17:08:18Z</time></trkpt><trkpt lat="43.30445288886491" lon="10.49675394114218"><ele>4.714285714285714</ele><time>2026-04-09T17:08:21Z</time></trkpt><trkpt lat="43.30450662351873" lon="10.496824938945979"><ele>4.857142857142857</ele><time>2026-04-09T17:08:24Z</time></trkpt><trkpt lat="43.304552768769724" lon="10.496892710561625"><ele>5.0</ele><time>2026-04-09T17:08:27Z</time></trkpt><trkpt lat="43.30460534419094" lon="10.496972975043004"><ele>5.0</ele><time>2026-04-09T17:08:30Z</time></trkpt><trkpt lat="43.30465711185249" lon="10.497038972698546"><ele>5.0</ele><time>2026-04-09T17:08:33Z</time></trkpt><trkpt lat="43.304710895112954" lon="10.497114522170387"><ele>5.0</ele><time>2026-04-09T17:08:36Z</time></trkpt><trkpt lat="43.30476625467551" lon="10.497173203790634"><ele>5.0</ele><time>2026-04-09T17:08:39Z</time></trkpt><trkpt lat="43.30481862955709" lon="10.497224302756695"><ele>5.0</ele><time>2026-04-09T17:08:42Z</time></trkpt><trkpt lat="43.304878964572254" lon="10.497265236356041"><ele>5.0</ele><time>2026-04-09T17:08:45Z</time></trkpt><trkpt lat="43.30493882566427" lon="10.497333666124575"><ele>5.0</ele><time>2026-04-09T17:08:48Z</time></trkpt><trkpt lat="43.30499624918356" lon="10.49739030661348"><ele>4.571428571428571</ele><time>2026-04-09T17:08:51Z</time></trkpt><trkpt lat="43.305059186364865" lon="10.497442808945697"><ele>4.142857142857143</ele><time>2026-04-09T17:08:54Z</time></trkpt><trkpt lat="43.305117814442646" lon="10.497497211128847"><ele>3.7142857142857144</ele><time>2026-04-09T17:08:57Z</time></trkpt><trkpt lat="43.30517725899755" lon="10.497548219081995"><ele>3.2857142857142856</ele><time>2026-04-09T17:09:00Z</time></trkpt><trkpt lat="43.305237652976345" lon="10.497611853185013"><ele>2.8571428571428568</ele><time>2026-04-09T17:09:03Z</time></trkpt><trkpt lat="43.30529492927302" lon="10.497668370121975"><ele>2.4285714285714284</ele><time>2026-04-09T17:09:06Z</time></trkpt><trkpt lat="43.305365559739485" lon="10.497723990287955"><ele>2.0</ele><time>2026-04-09T17:09:10Z</time></trkpt><trkpt lat="43.30542660278142" lon="10.497769948005454"><ele>2.0</ele><time>2026-04-09T17:09:13Z</time></trkpt><trkpt lat="43.3054972351321" lon="10.497832301992453"><ele>1.9999999999999998</ele><time>2026-04-09T17:09:17Z</time></trkpt><trkpt lat="43.30555263955599" lon="10.497888407491645"><ele>2.0</ele><time>2026-04-09T17:09:20Z</time></trkpt><trkpt lat="43.30561484307073" lon="10.497937437088664"><ele>2.0</ele><time>2026-04-09T17:09:23Z</time></trkpt><trkpt lat="43.3056801834182" lon="10.49801281060233"><ele>1.9999999999999998</ele><time>2026-04-09T17:09:27Z</time></trkpt><trkpt lat="43.305748343712644" lon="10.498042985079959"><ele>2.0</ele><time>2026-04-09T17:09:31Z</time></trkpt><trkpt lat="43.30580434209927" lon="10.498096215153922"><ele>2.0</ele><time>2026-04-09T17:09:34Z</time></trkpt><trkpt lat="43.305856980142025" lon="10.498163268306065"><ele>2.142857142857143</ele><time>2026-04-09T17:09:37Z</time></trkpt><trkpt lat="43.30590677719663" lon="10.498217779191224"><ele>2.2857142857142856</ele><time>2026-04-09T17:09:40Z</time></trkpt><trkpt lat="43.30597361734538" lon="10.49828896242776"><ele>2.4285714285714284</ele><time>2026-04-09T17:09:44Z</time></trkpt><trkpt lat="43.30602548238877" lon="10.498342370747148"><ele>2.571428571428571</ele><time>2026-04-09T17:09:47Z</time></trkpt><trkpt lat="43.30609704070033" lon="10.498392148844859"><ele>2.7142857142857144</ele><time>2026-04-09T17:09:51Z</time></trkpt><trkpt lat="43.30615072066443" lon="10.49844249392264"><ele>2.8571428571428568</ele><time>2026-04-09T17:09:54Z</time></trkpt><trkpt lat="43.3062124857909" lon="10.498501174907934"><ele>3.0</ele><time>2026-04-09T17:09:57Z</time></trkpt><trkpt lat="43.30627295670339" lon="10.498557667050381"><ele>2.9999999999999996</ele><time>2026-04-09T17:10:00Z</time></trkpt><trkpt lat="43.306328130750096" lon="10.49860888825436"><ele>3.0</ele><time>2026-04-09T17:10:03Z</time></trkpt><trkpt lat="43.306381353629874" lon="10.498657965282815"><ele>3.0</ele><time>2026-04-09T17:10:06Z</time></trkpt><trkpt lat="43.30644483843112" lon="10.498689979473962"><ele>3.0</ele><time>2026-04-09T17:10:09Z</time></trkpt><trkpt lat="43.30651061646519" lon="10.498745211010228"><ele>3.0</ele><time>2026-04-09T17:10:12Z</time></trkpt><trkpt lat="43.306581036901704" lon="10.49880667795359"><ele>2.9999999999999996</ele><time>2026-04-09T17:10:15Z</time></trkpt><trkpt lat="43.30664388669574" lon="10.498864930686734"><ele>3.0</ele><time>2026-04-09T17:10:18Z</time></trkpt><trkpt lat="43.306709955746385" lon="10.498911658118493"><ele>2.714285714285714</ele><time>2026-04-09T17:10:21Z</time></trkpt><trkpt lat="43.30676309349708" lon="10.49896211807998"><ele>2.4285714285714284</ele><time>2026-04-09T17:10:24Z</time></trkpt><trkpt lat="43.3068189618442" lon="10.499014860406298"><ele>2.142857142857143</ele><time>2026-04-09T17:10:27Z</time></trkpt><trkpt lat="43.30688047974659" lon="10.49905432620957"><ele>1.857142857142857</ele><time>2026-04-09T17:10:30Z</time></trkpt><trkpt lat="43.306941966142155" lon="10.499104270804379"><ele>1.5714285714285712</ele><time>2026-04-09T17:10:33Z</time></trkpt><trkpt lat="43.30699785370325" lon="10.499159097010791"><ele>1.2857142857142856</ele><time>2026-04-09T17:10:36Z</time></trkpt><trkpt lat="43.30705316785895" lon="10.499202135991272"><ele>1.0</ele><time>2026-04-09T17:10:39Z</time></trkpt><trkpt lat="43.30711371915597" lon="10.499246222177803"><ele>0.9999999999999999</ele><time>2026-04-09T17:10:42Z</time></trkpt><trkpt lat="43.30718780954872" lon="10.499276258006992"><ele>1.0</ele><time>2026-04-09T17:10:47Z</time></trkpt><trkpt lat="43.3072652151762" lon="10.499304959505809"><ele>1.0</ele><time>2026-04-09T17:10:52Z</time></trkpt><trkpt lat="43.30732723639574" lon="10.499388561835438"><ele>1.0</ele><time>2026-04-09T17:10:55Z</time></trkpt><trkpt lat="43.30738325337056" lon="10.499467985205396"><ele>0.9999999999999999</ele><time>2026-04-09T17:10:58Z</time></trkpt><trkpt lat="43.30744676052591" lon="10.499534276047534"><ele>1.0</ele><time>2026-04-09T17:11:01Z</time></trkpt><trkpt lat="43.30750491972585" lon="10.499593834270971"><ele>1.0</ele><time>2026-04-09T17:11:04Z</time></trkpt><trkpt lat="43.3075637830489" lon="10.499645305938808"><ele>0.9999999999999999</ele><time>2026-04-09T17:11:07Z</time></trkpt><trkpt lat="43.307619144467466" lon="10.499699523005457"><ele>1.0</ele><time>2026-04-09T17:11:10Z</time></trkpt><trkpt lat="43.30767537890961" lon="10.499753822183504"><ele>1.0</ele><time>2026-04-09T17:11:13Z</time></trkpt><trkpt lat="43.30773087812631" lon="10.499800425339357"><ele>0.9999999999999999</ele><time>2026-04-09T17:11:16Z</time></trkpt><trkpt lat="43.30778767017289" lon="10.49985530009701"><ele>1.0</ele><time>2026-04-09T17:11:19Z</time></trkpt><trkpt lat="43.30783963539981" lon="10.499908375063788"><ele>1.0</ele><time>2026-04-09T17:11:22Z</time></trkpt><trkpt lat="43.30790039510789" lon="10.499949171826602"><ele>0.9999999999999999</ele><time>2026-04-09T17:11:25Z</time></trkpt><trkpt lat="43.30797597515255" lon="10.500014804005675"><ele>1.0</ele><time>2026-04-09T17:11:29Z</time></trkpt><trkpt lat="43.30803438746241" lon="10.500066210305928"><ele>1.0</ele><time>2026-04-09T17:11:32Z</time></trkpt><trkpt lat="43.308090796159284" lon="10.500126518597195"><ele>1.0</ele><time>2026-04-09T17:11:35Z</time></trkpt><trkpt lat="43.308150300939964" lon="10.50017355018976"><ele>0.9999999999999999</ele><time>2026-04-09T17:11:38Z</time></trkpt><trkpt lat="43.30822477419936" lon="10.500237498200269"><ele>1.0</ele><time>2026-04-09T17:11:42Z</time></trkpt><trkpt lat="43.308284765864066" lon="10.500281706233022"><ele>1.0</ele><time>2026-04-09T17:11:45Z</time></trkpt><trkpt lat="43.30834261827953" lon="10.500323480903818"><ele>0.9999999999999999</ele><time>2026-04-09T17:11:48Z</time></trkpt><trkpt lat="43.308401796245924" lon="10.500370217430852"><ele>1.0</ele><time>2026-04-09T17:11:51Z</time></trkpt><trkpt lat="43.308467167396245" lon="10.500413278005121"><ele>1.0</ele><time>2026-04-09T17:11:54Z</time></trkpt><trkpt lat="43.308532633313604" lon="10.50045356945596"><ele>0.9999999999999999</ele><time>2026-04-09T17:11:57Z</time></trkpt><trkpt lat="43.30859680485201" lon="10.500493140576005"><ele>1.0</ele><time>2026-04-09T17:12:00Z</time></trkpt><trkpt lat="43.30865739539265" lon="10.50053741687794"><ele>1.0</ele><time>2026-04-09T17:12:03Z</time></trkpt><trkpt lat="43.30872263123874" lon="10.500577742315187"><ele>1.0</ele><time>2026-04-09T17:12:06Z</time></trkpt><trkpt lat="43.30878600208744" lon="10.50062101118274"><ele>0.9999999999999999</ele><time>2026-04-09T17:12:09Z</time></trkpt><trkpt lat="43.30884771801136" lon="10.500666695851393"><ele>1.0</ele><time>2026-04-09T17:12:12Z</time></trkpt><trkpt lat="43.308909663038094" lon="10.500702057082096"><ele>1.0</ele><time>2026-04-09T17:12:15Z</time></trkpt><trkpt lat="43.30897359414227" lon="10.500732211675992"><ele>0.9999999999999999</ele><time>2026-04-09T17:12:18Z</time></trkpt><trkpt lat="43.30903331569799" lon="10.50077223970449"><ele>1.0</ele><time>2026-04-09T17:12:21Z</time></trkpt><trkpt lat="43.30908933394566" lon="10.500813056061"><ele>1.0</ele><time>2026-04-09T17:12:24Z</time></trkpt><trkpt lat="43.3091540207575" lon="10.50084532680745"><ele>1.0</ele><time>2026-04-09T17:12:27Z</time></trkpt><trkpt lat="43.3092188516094" lon="10.500880021849996"><ele>0.9999999999999999</ele><time>2026-04-09T17:12:30Z</time></trkpt><trkpt lat="43.30928140922048" lon="10.500912526529985"><ele>1.0</ele><time>2026-04-09T17:12:33Z</time></trkpt><trkpt lat="43.30934436924731" lon="10.50094712399381"><ele>1.0</ele><time>2026-04-09T17:12:36Z</time></trkpt><trkpt lat="43.30940647977714" lon="10.500981027492442"><ele>0.9999999999999999</ele><time>2026-04-09T17:12:39Z</time></trkpt><trkpt lat="43.30946783721357" lon="10.50101425880616"><ele>1.0</ele><time>2026-04-09T17:12:42Z</time></trkpt><trkpt lat="43.30953342046315" lon="10.501043551770005"><ele>1.0</ele><time>2026-04-09T17:12:45Z</time></trkpt><trkpt lat="43.30959540971805" lon="10.501083014625426"><ele>1.0</ele><time>2026-04-09T17:12:48Z</time></trkpt><trkpt lat="43.30965675560597" lon="10.50111610769317"><ele>0.9999999999999999</ele><time>2026-04-09T17:12:51Z</time></trkpt><trkpt lat="43.30972632917424" lon="10.501148789746816"><ele>1.0</ele><time>2026-04-09T17:12:54Z</time></trkpt><trkpt lat="43.30978830278932" lon="10.501183198612427"><ele>1.0</ele><time>2026-04-09T17:12:57Z</time></trkpt><trkpt lat="43.30985113849799" lon="10.501218407682437"><ele>0.9999999999999999</ele><time>2026-04-09T17:13:00Z</time></trkpt><trkpt lat="43.30991678095094" lon="10.501252916929783"><ele>1.0</ele><time>2026-04-09T17:13:03Z</time></trkpt><trkpt lat="43.30997429535161" lon="10.501290145035062"><ele>1.0</ele><time>2026-04-09T17:13:06Z</time></trkpt><trkpt lat="43.31003721059117" lon="10.501320002846072"><ele>1.0</ele><time>2026-04-09T17:13:09Z</time></trkpt><trkpt lat="43.310098561326285" lon="10.501355032570578"><ele>0.9999999999999999</ele><time>2026-04-09T17:13:12Z</time></trkpt><trkpt lat="43.31016030217047" lon="10.501382900277468"><ele>1.0</ele><time>2026-04-09T17:13:15Z</time></trkpt><trkpt lat="43.31022266255533" lon="10.501420496033282"><ele>1.0</ele><time>2026-04-09T17:13:18Z</time></trkpt><trkpt lat="43.3102805169842" lon="10.501458291079222"><ele>0.9999999999999999</ele><time>2026-04-09T17:13:21Z</time></trkpt><trkpt lat="43.31034894385284" lon="10.501491032738342"><ele>1.0</ele><time>2026-04-09T17:13:24Z</time></trkpt><trkpt lat="43.310423292271736" lon="10.501540613796896"><ele>1.0</ele><time>2026-04-09T17:13:28Z</time></trkpt><trkpt lat="43.31048096272844" lon="10.50157642732319"><ele>1.0</ele><time>2026-04-09T17:13:31Z</time></trkpt><trkpt lat="43.31054993610182" lon="10.501611107875487"><ele>0.9999999999999999</ele><time>2026-04-09T17:13:34Z</time></trkpt><trkpt lat="43.31062697433144" lon="10.501649384995538"><ele>1.0</ele><time>2026-04-09T17:13:38Z</time></trkpt><trkpt lat="43.31069481099809" lon="10.501688584276735"><ele>1.0</ele><time>2026-04-09T17:13:41Z</time></trkpt><trkpt lat="43.31075930867558" lon="10.501726233660037"><ele>0.9999999999999999</ele><time>2026-04-09T17:13:44Z</time></trkpt><trkpt lat="43.31082663268691" lon="10.501754417144998"><ele>1.0</ele><time>2026-04-09T17:13:47Z</time></trkpt><trkpt lat="43.31089790856016" lon="10.501790489862344"><ele>1.0</ele><time>2026-04-09T17:13:50Z</time></trkpt><trkpt lat="43.31096932463508" lon="10.501843798177697"><ele>1.1428571428571428</ele><time>2026-04-09T17:13:53Z</time></trkpt><trkpt lat="43.31103836359766" lon="10.501876013549003"><ele>1.2857142857142856</ele><time>2026-04-09T17:13:56Z</time></trkpt><trkpt lat="43.31110273030967" lon="10.5019221303695"><ele>1.4285714285714284</ele><time>2026-04-09T17:13:59Z</time></trkpt><trkpt lat="43.311166803539045" lon="10.501971508660484"><ele>1.5714285714285714</ele><time>2026-04-09T17:14:02Z</time></trkpt><trkpt lat="43.31122979972725" lon="10.502013217291568"><ele>1.714285714285714</ele><time>2026-04-09T17:14:05Z</time></trkpt><trkpt lat="43.31130547021144" lon="10.502063755882787"><ele>1.857142857142857</ele><time>2026-04-09T17:14:09Z</time></trkpt><trkpt lat="43.311365834205866" lon="10.50211513898929"><ele>2.0</ele><time>2026-04-09T17:14:12Z</time></trkpt><trkpt lat="43.31142333612559" lon="10.502162577755405"><ele>2.0</ele><time>2026-04-09T17:14:15Z</time></trkpt><trkpt lat="43.3114751348261" lon="10.502232163614604"><ele>1.9999999999999998</ele><time>2026-04-09T17:14:18Z</time></trkpt><trkpt lat="43.31153066726147" lon="10.502299985253856"><ele>2.0</ele><time>2026-04-09T17:14:21Z</time></trkpt><trkpt lat="43.31158044309048" lon="10.50237092915219"><ele>2.0</ele><time>2026-04-09T17:14:24Z</time></trkpt><trkpt lat="43.311632232903904" lon="10.502432565641113"><ele>1.9999999999999998</ele><time>2026-04-09T17:14:27Z</time></trkpt><trkpt lat="43.3116782183537" lon="10.502503583856123"><ele>2.0</ele><time>2026-04-09T17:14:30Z</time></trkpt><trkpt lat="43.31172341219129" lon="10.502565153920424"><ele>2.0</ele><time>2026-04-09T17:14:33Z</time></trkpt><trkpt lat="43.3117678311456" lon="10.502633469775883"><ele>2.0</ele><time>2026-04-09T17:14:36Z</time></trkpt><trkpt lat="43.31180889289813" lon="10.502712206913491"><ele>1.9999999999999998</ele><time>2026-04-09T17:14:39Z</time></trkpt><trkpt lat="43.31185012080544" lon="10.502785236923263"><ele>2.0</ele><time>2026-04-09T17:14:42Z</time></trkpt><trkpt lat="43.31188488928819" lon="10.50285769402701"><ele>2.0</ele><time>2026-04-09T17:14:45Z</time></trkpt><trkpt lat="43.31191794224374" lon="10.502939126316797"><ele>1.9999999999999998</ele><time>2026-04-09T17:14:48Z</time></trkpt><trkpt lat="43.31194949733687" lon="10.503020579635566"><ele>2.0</ele><time>2026-04-09T17:14:51Z</time></trkpt><trkpt lat="43.311984078466025" lon="10.50310403125283"><ele>2.0</ele><time>2026-04-09T17:14:54Z</time></trkpt><trkpt lat="43.31201078095614" lon="10.503184994766483"><ele>2.0</ele><time>2026-04-09T17:14:57Z</time></trkpt><trkpt lat="43.31203856513156" lon="10.503273429891093"><ele>1.9999999999999998</ele><time>2026-04-09T17:15:00Z</time></trkpt><trkpt lat="43.31207259555318" lon="10.503377344096759"><ele>2.0</ele><time>2026-04-09T17:15:04Z</time></trkpt><trkpt lat="43.312107087239916" lon="10.503481109804026"><ele>2.0</ele><time>2026-04-09T17:15:08Z</time></trkpt><trkpt lat="43.312138972330125" lon="10.503576569972195"><ele>1.9999999999999998</ele><time>2026-04-09T17:15:11Z</time></trkpt><trkpt lat="43.312169433585375" lon="10.503654249427965"><ele>2.0</ele><time>2026-04-09T17:15:14Z</time></trkpt><trkpt lat="43.312195446517485" lon="10.5037408317668"><ele>2.0</ele><time>2026-04-09T17:15:17Z</time></trkpt><trkpt lat="43.31222330032172" lon="10.503827985389226"><ele>2.2857142857142856</ele><time>2026-04-09T17:15:20Z</time></trkpt><trkpt lat="43.31225773329383" lon="10.503910167731199"><ele>2.571428571428571</ele><time>2026-04-09T17:15:23Z</time></trkpt><trkpt lat="43.312280647868114" lon="10.503997354675759"><ele>2.8571428571428568</ele><time>2026-04-09T17:15:26Z</time></trkpt><trkpt lat="43.31231396964926" lon="10.50407515776409"><ele>3.142857142857143</ele><time>2026-04-09T17:15:29Z</time></trkpt><trkpt lat="43.31234042831771" lon="10.504156024140215"><ele>3.428571428571428</ele><time>2026-04-09T17:15:32Z</time></trkpt><trkpt lat="43.31236728618106" lon="10.504238936816463"><ele>3.714285714285714</ele><time>2026-04-09T17:15:35Z</time></trkpt><trkpt lat="43.31239915809504" lon="10.504317401840183"><ele>4.0</ele><time>2026-04-09T17:15:38Z</time></trkpt><trkpt lat="43.312425954307244" lon="10.504401171433477"><ele>4.0</ele><time>2026-04-09T17:15:41Z</time></trkpt><trkpt lat="43.31245492965073" lon="10.504490342595414"><ele>3.9999999999999996</ele><time>2026-04-09T17:15:44Z</time></trkpt><trkpt lat="43.312484839008" lon="10.504572881038962"><ele>4.0</ele><time>2026-04-09T17:15:47Z</time></trkpt><trkpt lat="43.31251111845059" lon="10.50465260589324"><ele>4.0</ele><time>2026-04-09T17:15:50Z</time></trkpt><trkpt lat="43.31254581248264" lon="10.504733875740211"><ele>3.9999999999999996</ele><time>2026-04-09T17:15:53Z</time></trkpt><trkpt lat="43.312570404494856" lon="10.504814676583395"><ele>4.0</ele><time>2026-04-09T17:15:56Z</time></trkpt><trkpt lat="43.312590995021935" lon="10.50490048533393"><ele>4.0</ele><time>2026-04-09T17:15:59Z</time></trkpt><trkpt lat="43.312624696492236" lon="10.505006367281553"><ele>3.8571428571428568</ele><time>2026-04-09T17:16:03Z</time></trkpt><trkpt lat="43.31264858225174" lon="10.505093959251493"><ele>3.714285714285714</ele><time>2026-04-09T17:16:06Z</time></trkpt><trkpt lat="43.31266549457984" lon="10.505182572368538"><ele>3.571428571428571</ele><time>2026-04-09T17:16:09Z</time></trkpt><trkpt lat="43.3126824324499" lon="10.505296793024266"><ele>3.4285714285714284</ele><time>2026-04-09T17:16:13Z</time></trkpt><trkpt lat="43.31269225794778" lon="10.505387634795186"><ele>3.2857142857142856</ele><time>2026-04-09T17:16:16Z</time></trkpt><trkpt lat="43.312706106333444" lon="10.505477533445983"><ele>3.1428571428571423</ele><time>2026-04-09T17:16:19Z</time></trkpt><trkpt lat="43.31271116470874" lon="10.505572805337168"><ele>3.0</ele><time>2026-04-09T17:16:22Z</time></trkpt><trkpt lat="43.31271415742367" lon="10.505660356048867"><ele>2.8571428571428568</ele><time>2026-04-09T17:16:25Z</time></trkpt><trkpt lat="43.31272483011968" lon="10.505746911347401"><ele>2.7142857142857144</ele><time>2026-04-09T17:16:28Z</time></trkpt><trkpt lat="43.31272442989453" lon="10.505842600317171"><ele>2.571428571428571</ele><time>2026-04-09T17:16:31Z</time></trkpt><trkpt lat="43.31272467070729" lon="10.505931703603206"><ele>2.4285714285714284</ele><time>2026-04-09T17:16:34Z</time></trkpt><trkpt lat="43.312723762405405" lon="10.506031074542237"><ele>2.2857142857142856</ele><time>2026-04-09T17:16:37Z</time></trkpt><trkpt lat="43.31272429679318" lon="10.506124261259188"><ele>2.142857142857143</ele><time>2026-04-09T17:16:40Z</time></trkpt><trkpt lat="43.312727261479" lon="10.50621320223629"><ele>2.0</ele><time>2026-04-09T17:16:43Z</time></trkpt><trkpt lat="43.31272228566155" lon="10.506305875498708"><ele>2.0</ele><time>2026-04-09T17:16:46Z</time></trkpt><trkpt lat="43.31271513322969" lon="10.506417009021202"><ele>1.9999999999999998</ele><time>2026-04-09T17:16:50Z</time></trkpt><trkpt lat="43.31270945369807" lon="10.506528502212813"><ele>2.0</ele><time>2026-04-09T17:16:54Z</time></trkpt><trkpt lat="43.31270904771556" lon="10.506615814608246"><ele>2.0</ele><time>2026-04-09T17:16:57Z</time></trkpt><trkpt lat="43.31271575142908" lon="10.506711130350231"><ele>1.9999999999999998</ele><time>2026-04-09T17:17:00Z</time></trkpt><trkpt lat="43.3127138079529" lon="10.506806500351804"><ele>2.0</ele><time>2026-04-09T17:17:03Z</time></trkpt><trkpt lat="43.31272050699829" lon="10.50689937964678"><ele>2.0</ele><time>2026-04-09T17:17:06Z</time></trkpt><trkpt lat="43.312719959806365" lon="10.506990527464165"><ele>2.0</ele><time>2026-04-09T17:17:09Z</time></trkpt><trkpt lat="43.31272074539335" lon="10.507083242691564"><ele>1.9999999999999998</ele><time>2026-04-09T17:17:12Z</time></trkpt><trkpt lat="43.31272412245257" lon="10.50717780453289"><ele>2.0</ele><time>2026-04-09T17:17:15Z</time></trkpt><trkpt lat="43.31272644434148" lon="10.507272960384503"><ele>2.0</ele><time>2026-04-09T17:17:18Z</time></trkpt><trkpt lat="43.31272660850531" lon="10.507368484864022"><ele>1.9999999999999998</ele><time>2026-04-09T17:17:21Z</time></trkpt><trkpt lat="43.31272490105228" lon="10.507476826563714"><ele>2.0</ele><time>2026-04-09T17:17:25Z</time></trkpt><trkpt lat="43.312725970658775" lon="10.507587375176763"><ele>2.0</ele><time>2026-04-09T17:17:28.999Z</time></trkpt><trkpt lat="43.3127327360413" lon="10.507681024317026"><ele>2.0</ele><time>2026-04-09T17:17:31.999Z</time></trkpt><trkpt lat="43.31273446844944" lon="10.507792324342386"><ele>1.9999999999999998</ele><time>2026-04-09T17:17:36Z</time></trkpt><trkpt lat="43.31274715753999" lon="10.507888750833871"><ele>2.0</ele><time>2026-04-09T17:17:39Z</time></trkpt><trkpt lat="43.31274922496033" lon="10.507976671741169"><ele>2.0</ele><time>2026-04-09T17:17:42Z</time></trkpt><trkpt lat="43.31276144205589" lon="10.508066633278707"><ele>1.9999999999999998</ele><time>2026-04-09T17:17:45Z</time></trkpt><trkpt lat="43.312762113712516" lon="10.50816463825785"><ele>2.0</ele><time>2026-04-09T17:17:48Z</time></trkpt><trkpt lat="43.31277292438187" lon="10.508257214972568"><ele>2.0</ele><time>2026-04-09T17:17:51Z</time></trkpt><trkpt lat="43.31277711845349" lon="10.508344972910615"><ele>2.142857142857143</ele><time>2026-04-09T17:17:54Z</time></trkpt><trkpt lat="43.31280053804254" lon="10.508446988150904"><ele>2.2857142857142856</ele><time>2026-04-09T17:17:58Z</time></trkpt><trkpt lat="43.31281241622826" lon="10.508540361399872"><ele>2.4285714285714284</ele><time>2026-04-09T17:18:01Z</time></trkpt><trkpt lat="43.31282704247236" lon="10.508634250802144"><ele>2.571428571428571</ele><time>2026-04-09T17:18:04Z</time></trkpt><trkpt lat="43.31284676097006" lon="10.50872028904613"><ele>2.7142857142857144</ele><time>2026-04-09T17:18:07Z</time></trkpt><trkpt lat="43.31286569293737" lon="10.508818681760875"><ele>2.8571428571428568</ele><time>2026-04-09T17:18:10Z</time></trkpt><trkpt lat="43.31286681081019" lon="10.508928238699207"><ele>3.0</ele><time>2026-04-09T17:18:13Z</time></trkpt><trkpt lat="43.312891077059724" lon="10.50902300929401"><ele>3.0</ele><time>2026-04-09T17:18:16Z</time></trkpt><trkpt lat="43.312915055703705" lon="10.509110144023188"><ele>3.0</ele><time>2026-04-09T17:18:19Z</time></trkpt><trkpt lat="43.31295881863206" lon="10.509197793269516"><ele>3.0</ele><time>2026-04-09T17:18:23Z</time></trkpt><trkpt lat="43.312978605350295" lon="10.509316697036951"><ele>3.0</ele><time>2026-04-09T17:18:27Z</time></trkpt><trkpt lat="43.31299440118651" lon="10.509421945718003"><ele>3.0</ele><time>2026-04-09T17:18:30Z</time></trkpt><trkpt lat="43.31301033308959" lon="10.509547621013057"><ele>3.0</ele><time>2026-04-09T17:18:33Z</time></trkpt><trkpt lat="43.31302964511584" lon="10.509631669196024"><ele>2.9999999999999996</ele><time>2026-04-09T17:18:35Z</time></trkpt><trkpt lat="43.31304603014257" lon="10.509734835030029"><ele>3.0</ele><time>2026-04-09T17:18:38Z</time></trkpt><trkpt lat="43.313065764735185" lon="10.509827672862384"><ele>3.0</ele><time>2026-04-09T17:18:41Z</time></trkpt><trkpt lat="43.31307874396977" lon="10.509923695071656"><ele>3.0</ele><time>2026-04-09T17:18:44Z</time></trkpt><trkpt lat="43.31309787679637" lon="10.510018496611128"><ele>3.0</ele><time>2026-04-09T17:18:47Z</time></trkpt><trkpt lat="43.31311833351837" lon="10.510107095445843"><ele>2.9999999999999996</ele><time>2026-04-09T17:18:50Z</time></trkpt><trkpt lat="43.31313037430094" lon="10.510194544932098"><ele>3.0</ele><time>2026-04-09T17:18:53Z</time></trkpt><trkpt lat="43.31315086261428" lon="10.510288107421387"><ele>2.9999999999999996</ele><time>2026-04-09T17:18:56Z</time></trkpt><trkpt lat="43.313171992715546" lon="10.510376968469854"><ele>3.0</ele><time>2026-04-09T17:18:59Z</time></trkpt><trkpt lat="43.313188192557206" lon="10.510467510772349"><ele>3.0</ele><time>2026-04-09T17:19:02Z</time></trkpt><trkpt lat="43.31321843826731" lon="10.510544765366301"><ele>3.0</ele><time>2026-04-09T17:19:05Z</time></trkpt><trkpt lat="43.3132521504187" lon="10.51061786899026"><ele>3.0</ele><time>2026-04-09T17:19:08Z</time></trkpt><trkpt lat="43.313298718591895" lon="10.510710386596324"><ele>2.9999999999999996</ele><time>2026-04-09T17:19:11Z</time></trkpt><trkpt lat="43.313330213556824" lon="10.51079972746996"><ele>3.0</ele><time>2026-04-09T17:19:14Z</time></trkpt><trkpt lat="43.313319125258474" lon="10.510906073997473"><ele>2.9999999999999996</ele><time>2026-04-09T17:19:17Z</time></trkpt><trkpt lat="43.31334569237021" lon="10.510989140232326"><ele>3.0</ele><time>2026-04-09T17:19:20Z</time></trkpt><trkpt lat="43.31341620803324" lon="10.510995322214354"><ele>3.0</ele><time>2026-04-09T17:19:23Z</time></trkpt><trkpt lat="43.313490578621746" lon="10.511015531948358"><ele>3.0</ele><time>2026-04-09T17:19:26Z</time></trkpt><trkpt lat="43.31354514150248" lon="10.511101471858412"><ele>3.0</ele><time>2026-04-09T17:19:29Z</time></trkpt><trkpt lat="43.313567914109285" lon="10.511194679668865"><ele>2.9999999999999996</ele><time>2026-04-09T17:19:32Z</time></trkpt><trkpt lat="43.313611343721156" lon="10.511290346081749"><ele>3.0</ele><time>2026-04-09T17:19:35Z</time></trkpt><trkpt lat="43.313632018404995" lon="10.511389014683868"><ele>3.8571428571428568</ele><time>2026-04-09T17:19:38Z</time></trkpt><trkpt lat="43.31365850623218" lon="10.51147252341191"><ele>4.714285714285714</ele><time>2026-04-09T17:19:41Z</time></trkpt><trkpt lat="43.313686672070276" lon="10.511561679565927"><ele>5.571428571428572</ele><time>2026-04-09T17:19:45Z</time></trkpt><trkpt lat="43.31370512708611" lon="10.511646923776492"><ele>6.428571428571429</ele><time>2026-04-09T17:19:49Z</time></trkpt><trkpt lat="43.313755822417534" lon="10.511710887372395"><ele>7.285714285714286</ele><time>2026-04-09T17:19:56Z</time></trkpt><trkpt lat="43.31378688899123" lon="10.51180302577381"><ele>8.142857142857144</ele><time>2026-04-09T17:20:00Z</time></trkpt><trkpt lat="43.313789510518866" lon="10.511891632527835"><ele>9.0</ele><time>2026-04-09T17:20:02Z</time></trkpt><trkpt lat="43.31378081841859" lon="10.511984017672242"><ele>9.0</ele><time>2026-04-09T17:20:04Z</time></trkpt><trkpt lat="43.31377633995125" lon="10.51209402292818"><ele>9.0</ele><time>2026-04-09T17:20:06Z</time></trkpt><trkpt lat="43.31382696922273" lon="10.51203684887981"><ele>9.0</ele><time>2026-04-09T17:20:15Z</time></trkpt><trkpt lat="43.31379029620731" lon="10.512141768816026"><ele>9.0</ele><time>2026-04-09T17:20:22Z</time></trkpt><trkpt lat="43.31377217822086" lon="10.512243609280805"><ele>9.0</ele><time>2026-04-09T17:20:25Z</time></trkpt><trkpt lat="43.31373966988558" lon="10.512346780366581"><ele>9.0</ele><time>2026-04-09T17:20:28Z</time></trkpt><trkpt lat="43.313750596351795" lon="10.512442270193722"><ele>9.142857142857144</ele><time>2026-04-09T17:20:35Z</time></trkpt><trkpt lat="43.31381556088514" lon="10.512488243528312"><ele>9.285714285714286</ele><time>2026-04-09T17:20:42Z</time></trkpt><trkpt lat="43.31387027866784" lon="10.512564027914758"><ele>9.428571428571429</ele><time>2026-04-09T17:20:46Z</time></trkpt><trkpt lat="43.31388693223553" lon="10.512658075262719"><ele>9.571428571428573</ele><time>2026-04-09T17:20:49Z</time></trkpt><trkpt lat="43.31390739048829" lon="10.512742217601263"><ele>9.714285714285715</ele><time>2026-04-09T17:20:52Z</time></trkpt><trkpt lat="43.313941081350286" lon="10.512834584021725"><ele>9.857142857142858</ele><time>2026-04-09T17:20:56Z</time></trkpt><trkpt lat="43.313973227450035" lon="10.51293101608875"><ele>10.0</ele><time>2026-04-09T17:21:00Z</time></trkpt><trkpt lat="43.31402732624871" lon="10.51299157289727"><ele>9.285714285714285</ele><time>2026-04-09T17:21:04Z</time></trkpt><trkpt lat="43.314065161106626" lon="10.51307127072433"><ele>8.571428571428571</ele><time>2026-04-09T17:21:07Z</time></trkpt><trkpt lat="43.31410176918173" lon="10.513146867425096"><ele>7.857142857142858</ele><time>2026-04-09T17:21:09Z</time></trkpt><trkpt lat="43.31412738200204" lon="10.51323031094301"><ele>7.142857142857142</ele><time>2026-04-09T17:21:11Z</time></trkpt><trkpt lat="43.31415339699906" lon="10.51333753262872"><ele>6.428571428571429</ele><time>2026-04-09T17:21:14Z</time></trkpt><trkpt lat="43.31418657803221" lon="10.51342942005715"><ele>5.714285714285714</ele><time>2026-04-09T17:21:16Z</time></trkpt><trkpt lat="43.314212871551" lon="10.513533507848349"><ele>5.0</ele><time>2026-04-09T17:21:18Z</time></trkpt><trkpt lat="43.31423272509216" lon="10.513646737454405"><ele>5.333333333333334</ele><time>2026-04-09T17:21:20Z</time></trkpt><trkpt lat="43.31425707944483" lon="10.51376283866051"><ele>5.666666666666667</ele><time>2026-04-09T17:21:22Z</time></trkpt><trkpt lat="43.31427816756974" lon="10.513844857971694"><ele>6.0</ele><time>2026-04-09T17:21:24Z</time></trkpt><trkpt lat="43.31429916834423" lon="10.513930166052495"><ele>6.333333333333334</ele><time>2026-04-09T17:21:26Z</time></trkpt><trkpt lat="43.31431132183642" lon="10.514055590789097"><ele>6.666666666666667</ele><time>2026-04-09T17:21:29Z</time></trkpt><trkpt lat="43.314330169022966" lon="10.514150617686665"><ele>7.0</ele><time>2026-04-09T17:21:32Z</time></trkpt><trkpt lat="43.314335238837494" lon="10.514263359364046"><ele>7.0</ele><time>2026-04-09T17:21:35Z</time></trkpt><trkpt lat="43.31433995816897" lon="10.514361579153954"><ele>7.0</ele><time>2026-04-09T17:21:38Z</time></trkpt><trkpt lat="43.31435699995474" lon="10.514446891299249"><ele>7.0</ele><time>2026-04-09T17:21:41Z</time></trkpt><trkpt lat="43.3143434258725" lon="10.514558434084925"><ele>7.0</ele><time>2026-04-09T17:21:44Z</time></trkpt><trkpt lat="43.31433930282464" lon="10.514671297732518"><ele>7.0</ele><time>2026-04-09T17:21:47Z</time></trkpt><trkpt lat="43.314321261221735" lon="10.514767072823846"><ele>7.0</ele><time>2026-04-09T17:21:52Z</time></trkpt><trkpt lat="43.314291682453614" lon="10.514852034643743"><ele>7.0</ele><time>2026-04-09T17:21:55Z</time></trkpt><trkpt lat="43.31426955628515" lon="10.514934965370795"><ele>7.285714285714286</ele><time>2026-04-09T17:21:58Z</time></trkpt><trkpt lat="43.31421952892049" lon="10.514998153961297"><ele>7.571428571428571</ele><time>2026-04-09T17:22:05Z</time></trkpt><trkpt lat="43.314168763981634" lon="10.515056249361718"><ele>7.857142857142858</ele><time>2026-04-09T17:22:10Z</time></trkpt><trkpt lat="43.3141289352375" lon="10.515133133199004"><ele>8.142857142857142</ele><time>2026-04-09T17:22:15Z</time></trkpt><trkpt lat="43.31406955985968" lon="10.51519657689721"><ele>8.428571428571429</ele><time>2026-04-09T17:22:22Z</time></trkpt><trkpt lat="43.31401547820251" lon="10.515259149730705"><ele>8.714285714285715</ele><time>2026-04-09T17:22:26Z</time></trkpt><trkpt lat="43.31395606403184" lon="10.515316357501144"><ele>9.0</ele><time>2026-04-09T17:22:30Z</time></trkpt><trkpt lat="43.31390718900117" lon="10.515380263027842"><ele>9.428571428571429</ele><time>2026-04-09T17:22:34Z</time></trkpt><trkpt lat="43.313837344644455" lon="10.515424043037344"><ele>9.857142857142858</ele><time>2026-04-09T17:22:39Z</time></trkpt><trkpt lat="43.313864741013845" lon="10.515503042144102"><ele>10.285714285714285</ele><time>2026-04-09T17:22:48Z</time></trkpt><trkpt lat="43.3139244810061" lon="10.515566323476238"><ele>10.714285714285715</ele><time>2026-04-09T17:22:53Z</time></trkpt><trkpt lat="43.31393869131901" lon="10.515666290056842"><ele>11.142857142857142</ele><time>2026-04-09T17:22:58Z</time></trkpt><trkpt lat="43.313916158065474" lon="10.515767983275511"><ele>11.571428571428571</ele><time>2026-04-09T17:23:03Z</time></trkpt><trkpt lat="43.31391382735854" lon="10.515855058520197"><ele>12.0</ele><time>2026-04-09T17:23:06Z</time></trkpt><trkpt lat="43.3139331666625" lon="10.515938488369777"><ele>12.142857142857142</ele><time>2026-04-09T17:23:08Z</time></trkpt><trkpt lat="43.3139785531824" lon="10.51603940605858"><ele>12.285714285714285</ele><time>2026-04-09T17:23:11Z</time></trkpt><trkpt lat="43.31401025993074" lon="10.51612065769439"><ele>12.428571428571427</ele><time>2026-04-09T17:23:15Z</time></trkpt><trkpt lat="43.31402149520197" lon="10.516214633719237"><ele>12.571428571428571</ele><time>2026-04-09T17:23:20Z</time></trkpt><trkpt lat="43.314023274764565" lon="10.516308071260534"><ele>12.714285714285715</ele><time>2026-04-09T17:23:24Z</time></trkpt><trkpt lat="43.3140472583404" lon="10.516403980192342"><ele>12.857142857142856</ele><time>2026-04-09T17:23:28Z</time></trkpt><trkpt lat="43.314087214969206" lon="10.516474080581698"><ele>13.0</ele><time>2026-04-09T17:23:32Z</time></trkpt><trkpt lat="43.31413249852769" lon="10.51655517309137"><ele>13.142857142857142</ele><time>2026-04-09T17:23:37Z</time></trkpt><trkpt lat="43.314155308006185" lon="10.516641489918404"><ele>13.285714285714286</ele><time>2026-04-09T17:23:42Z</time></trkpt><trkpt lat="43.31416925726099" lon="10.516730611347377"><ele>13.428571428571429</ele><time>2026-04-09T17:23:49Z</time></trkpt><trkpt lat="43.31417288416106" lon="10.516818814598592"><ele>13.571428571428571</ele><time>2026-04-09T17:23:55Z</time></trkpt><trkpt lat="43.31417709364231" lon="10.516917618175002"><ele>13.714285714285715</ele><time>2026-04-09T17:24:04Z</time></trkpt><trkpt lat="43.314179801155994" lon="10.517024349323576"><ele>13.857142857142858</ele><time>2026-04-09T17:24:11Z</time></trkpt><trkpt lat="43.31417232844534" lon="10.517116845613089"><ele>14.0</ele><time>2026-04-09T17:24:19Z</time></trkpt><trkpt lat="43.31421253642069" lon="10.517187863624903"><ele>14.0</ele><time>2026-04-09T17:24:23Z</time></trkpt><trkpt lat="43.314254443430656" lon="10.517258035857235"><ele>14.0</ele><time>2026-04-09T17:24:26Z</time></trkpt><trkpt lat="43.31430609329648" lon="10.517314349614162"><ele>14.0</ele><time>2026-04-09T17:24:31Z</time></trkpt><trkpt lat="43.314327654120056" lon="10.517411419540428"><ele>14.0</ele><time>2026-04-09T17:24:34Z</time></trkpt><trkpt lat="43.31435571007256" lon="10.517539337065928"><ele>14.0</ele><time>2026-04-09T17:24:37Z</time></trkpt><trkpt lat="43.31438031777565" lon="10.517629314280603"><ele>14.0</ele><time>2026-04-09T17:24:40Z</time></trkpt><trkpt lat="43.31441030712765" lon="10.517724981274855"><ele>14.0</ele><time>2026-04-09T17:24:45Z</time></trkpt><trkpt lat="43.31444554408547" lon="10.517824095480067"><ele>14.000000000000002</ele><time>2026-04-09T17:24:48Z</time></trkpt><trkpt lat="43.314479743487745" lon="10.51789716283428"><ele>14.0</ele><time>2026-04-09T17:24:50Z</time></trkpt><trkpt lat="43.314509736848116" lon="10.518019005857935"><ele>14.0</ele><time>2026-04-09T17:24:53Z</time></trkpt><trkpt lat="43.31452017166715" lon="10.518115131588253"><ele>14.0</ele><time>2026-04-09T17:24:56Z</time></trkpt><trkpt lat="43.31456196892266" lon="10.518220069266626"><ele>14.000000000000002</ele><time>2026-04-09T17:25:00Z</time></trkpt><trkpt lat="43.3146050142758" lon="10.518309834808237"><ele>14.0</ele><time>2026-04-09T17:25:04Z</time></trkpt><trkpt lat="43.314630747059546" lon="10.518410877551101"><ele>14.142857142857142</ele><time>2026-04-09T17:25:08Z</time></trkpt><trkpt lat="43.314672354538104" lon="10.518483806970563"><ele>14.285714285714285</ele><time>2026-04-09T17:25:11Z</time></trkpt><trkpt lat="43.31471874557806" lon="10.51854562863261"><ele>14.428571428571429</ele><time>2026-04-09T17:25:16Z</time></trkpt><trkpt lat="43.3147819032325" lon="10.518548008773635"><ele>14.571428571428571</ele><time>2026-04-09T17:25:23Z</time></trkpt><trkpt lat="43.31478611214334" lon="10.518640192103168"><ele>14.714285714285714</ele><time>2026-04-09T17:25:29Z</time></trkpt><trkpt lat="43.31480979088894" lon="10.518732532013475"><ele>14.857142857142858</ele><time>2026-04-09T17:25:33Z</time></trkpt><trkpt lat="43.31480599508296" lon="10.518832474934388"><ele>15.0</ele><time>2026-04-09T17:25:37Z</time></trkpt><trkpt lat="43.31483250651003" lon="10.518927558876976"><ele>15.571428571428573</ele><time>2026-04-09T17:25:42Z</time></trkpt><trkpt lat="43.31488399491394" lon="10.51901125060859"><ele>16.142857142857142</ele><time>2026-04-09T17:25:45Z</time></trkpt><trkpt lat="43.3149228415435" lon="10.519102100349224"><ele>16.714285714285715</ele><time>2026-04-09T17:25:49Z</time></trkpt><trkpt lat="43.31494333173471" lon="10.519193856528055"><ele>17.285714285714285</ele><time>2026-04-09T17:25:52Z</time></trkpt><trkpt lat="43.314980132425546" lon="10.519276026609846"><ele>17.857142857142858</ele><time>2026-04-09T17:25:55Z</time></trkpt><trkpt lat="43.31502506183569" lon="10.51935745826719"><ele>18.428571428571427</ele><time>2026-04-09T17:25:58Z</time></trkpt><trkpt lat="43.315057189117574" lon="10.51943774859851"><ele>19.0</ele><time>2026-04-09T17:26:02Z</time></trkpt><trkpt lat="43.315075909176464" lon="10.519528665161461"><ele>19.0</ele><time>2026-04-09T17:26:07Z</time></trkpt><trkpt lat="43.31503108474647" lon="10.519594093351005"><ele>19.0</ele><time>2026-04-09T17:26:15Z</time></trkpt><trkpt lat="43.315073983833955" lon="10.519679213957765"><ele>19.0</ele><time>2026-04-09T17:26:27Z</time></trkpt><trkpt lat="43.315094814272754" lon="10.519766659110237"><ele>19.0</ele><time>2026-04-09T17:26:30Z</time></trkpt><trkpt lat="43.31513565121063" lon="10.519848338296992"><ele>19.0</ele><time>2026-04-09T17:26:35Z</time></trkpt><trkpt lat="43.31516177398408" lon="10.51992973711852"><ele>19.0</ele><time>2026-04-09T17:26:39Z</time></trkpt><trkpt lat="43.31519370483119" lon="10.520027498475297"><ele>19.0</ele><time>2026-04-09T17:26:43Z</time></trkpt><trkpt lat="43.31522180959219" lon="10.520118857612008"><ele>19.0</ele><time>2026-04-09T17:26:47Z</time></trkpt><trkpt lat="43.31520254062263" lon="10.520205261529874"><ele>19.0</ele><time>2026-04-09T17:26:51Z</time></trkpt><trkpt lat="43.3151557415267" lon="10.520301931374892"><ele>19.0</ele><time>2026-04-09T17:26:55Z</time></trkpt><trkpt lat="43.31510753175446" lon="10.520408944781263"><ele>19.0</ele><time>2026-04-09T17:27:00Z</time></trkpt><trkpt lat="43.31506753909378" lon="10.520487658773305"><ele>19.0</ele><time>2026-04-09T17:27:03Z</time></trkpt><trkpt lat="43.31499769200914" lon="10.5205207340906"><ele>19.0</ele><time>2026-04-09T17:27:06Z</time></trkpt><trkpt lat="43.31493847217538" lon="10.520588164101508"><ele>18.71428571428571</ele><time>2026-04-09T17:27:09Z</time></trkpt><trkpt lat="43.31488009641189" lon="10.520624475723379"><ele>18.42857142857143</ele><time>2026-04-09T17:27:12Z</time></trkpt><trkpt lat="43.314812689852246" lon="10.520679039851988"><ele>18.142857142857142</ele><time>2026-04-09T17:27:19Z</time></trkpt><trkpt lat="43.31473239092875" lon="10.520685119869107"><ele>17.857142857142854</ele><time>2026-04-09T17:27:24Z</time></trkpt><trkpt lat="43.31466543272434" lon="10.520673294333433"><ele>17.57142857142857</ele><time>2026-04-09T17:27:29Z</time></trkpt><trkpt lat="43.31458260288137" lon="10.520708847666201"><ele>17.285714285714285</ele><time>2026-04-09T17:27:35Z</time></trkpt><trkpt lat="43.31451903773119" lon="10.520742790560806"><ele>17.0</ele><time>2026-04-09T17:27:42Z</time></trkpt><trkpt lat="43.314472303952165" lon="10.52080315370738"><ele>16.999999999999996</ele><time>2026-04-09T17:27:47Z</time></trkpt><trkpt lat="43.31441276892245" lon="10.520854375560729"><ele>17.0</ele><time>2026-04-09T17:27:57Z</time></trkpt><trkpt lat="43.31435169123532" lon="10.520880927065372"><ele>17.0</ele><time>2026-04-09T17:28:03Z</time></trkpt><trkpt lat="43.31427551051128" lon="10.520869676834222"><ele>17.0</ele><time>2026-04-09T17:28:07Z</time></trkpt><trkpt lat="43.314208746489065" lon="10.520898003054484"><ele>17.0</ele><time>2026-04-09T17:28:10Z</time></trkpt><trkpt lat="43.314146154772864" lon="10.520954119620999"><ele>16.999999999999996</ele><time>2026-04-09T17:28:18Z</time></trkpt><trkpt lat="43.31410512927492" lon="10.521021099613256"><ele>17.0</ele><time>2026-04-09T17:28:23Z</time></trkpt><trkpt lat="43.31404372133135" lon="10.521092209709266"><ele>17.0</ele><time>2026-04-09T17:28:27Z</time></trkpt><trkpt lat="43.31398022620848" lon="10.521151666962723"><ele>17.0</ele><time>2026-04-09T17:28:30Z</time></trkpt><trkpt lat="43.31392735133231" lon="10.52122000510365"><ele>17.0</ele><time>2026-04-09T17:28:33Z</time></trkpt><trkpt lat="43.31386337691601" lon="10.52129864608695"><ele>17.0</ele><time>2026-04-09T17:28:36Z</time></trkpt><trkpt lat="43.31381368350963" lon="10.521376309983332"><ele>17.0</ele><time>2026-04-09T17:28:39Z</time></trkpt><trkpt lat="43.31376204606213" lon="10.521467033206802"><ele>17.0</ele><time>2026-04-09T17:28:43Z</time></trkpt><trkpt lat="43.31372601022281" lon="10.521542510086721"><ele>17.285714285714285</ele><time>2026-04-09T17:28:47Z</time></trkpt><trkpt lat="43.31366476101506" lon="10.521584357408845"><ele>17.57142857142857</ele><time>2026-04-09T17:28:51Z</time></trkpt><trkpt lat="43.313611360514436" lon="10.521654167371592"><ele>17.857142857142854</ele><time>2026-04-09T17:28:56Z</time></trkpt><trkpt lat="43.31357392390935" lon="10.521753639568788"><ele>18.142857142857142</ele><time>2026-04-09T17:29:01Z</time></trkpt><trkpt lat="43.31353774216858" lon="10.521830933223887"><ele>18.42857142857143</ele><time>2026-04-09T17:29:06Z</time></trkpt><trkpt lat="43.31347889410028" lon="10.52188418211253"><ele>18.71428571428571</ele><time>2026-04-09T17:29:10Z</time></trkpt><trkpt lat="43.313440875536564" lon="10.521961138207041"><ele>19.0</ele><time>2026-04-09T17:29:15Z</time></trkpt><trkpt lat="43.31341058168072" lon="10.522041595858495"><ele>18.857142857142858</ele><time>2026-04-09T17:29:19Z</time></trkpt><trkpt lat="43.313350243729126" lon="10.52208734421869"><ele>18.714285714285715</ele><time>2026-04-09T17:29:22Z</time></trkpt><trkpt lat="43.31328725907085" lon="10.522116927242015"><ele>18.571428571428573</ele><time>2026-04-09T17:29:25Z</time></trkpt><trkpt lat="43.313225677608706" lon="10.522170964412066"><ele>18.42857142857143</ele><time>2026-04-09T17:29:31Z</time></trkpt><trkpt lat="43.31316028277461" lon="10.522196141471278"><ele>18.285714285714285</ele><time>2026-04-09T17:29:36Z</time></trkpt><trkpt lat="43.313117154925095" lon="10.522273119406785"><ele>18.142857142857146</ele><time>2026-04-09T17:29:40Z</time></trkpt><trkpt lat="43.31307233204468" lon="10.522343200264816"><ele>18.0</ele><time>2026-04-09T17:29:44Z</time></trkpt><trkpt lat="43.31302731309359" lon="10.522405385163129"><ele>18.28571428571429</ele><time>2026-04-09T17:29:48Z</time></trkpt><trkpt lat="43.31296489253386" lon="10.522446021302398"><ele>18.571428571428573</ele><time>2026-04-09T17:29:53Z</time></trkpt><trkpt lat="43.312892522688976" lon="10.522458255648086"><ele>18.857142857142858</ele><time>2026-04-09T17:29:58Z</time></trkpt><trkpt lat="43.31284683709605" lon="10.5225208153941"><ele>19.142857142857146</ele><time>2026-04-09T17:30:03Z</time></trkpt><trkpt lat="43.31278177110874" lon="10.522526775422504"><ele>19.42857142857143</ele><time>2026-04-09T17:30:07Z</time></trkpt><trkpt lat="43.31270833820201" lon="10.522558403928663"><ele>19.714285714285715</ele><time>2026-04-09T17:30:12Z</time></trkpt><trkpt lat="43.31264389475852" lon="10.522572011275383"><ele>20.0</ele><time>2026-04-09T17:30:16Z</time></trkpt><trkpt lat="43.31257531195917" lon="10.522607086387621"><ele>20.0</ele><time>2026-04-09T17:30:22Z</time></trkpt><trkpt lat="43.31251074307621" lon="10.522598824027916"><ele>20.0</ele><time>2026-04-09T17:30:27Z</time></trkpt><trkpt lat="43.31242918943858" lon="10.522574016694097"><ele>20.0</ele><time>2026-04-09T17:30:30Z</time></trkpt><trkpt lat="43.31234581613897" lon="10.522581354740025"><ele>20.0</ele><time>2026-04-09T17:30:33Z</time></trkpt><trkpt lat="43.31230449061304" lon="10.52265268498642"><ele>20.0</ele><time>2026-04-09T17:30:42Z</time></trkpt><trkpt lat="43.31230378799911" lon="10.522756871686145"><ele>20.0</ele><time>2026-04-09T17:30:46Z</time></trkpt><trkpt lat="43.31224795728617" lon="10.522799309338918"><ele>20.0</ele><time>2026-04-09T17:30:56Z</time></trkpt><trkpt lat="43.31219129707205" lon="10.522843916511809"><ele>19.714285714285715</ele><time>2026-04-09T17:31:01Z</time></trkpt><trkpt lat="43.31214670139459" lon="10.522924682331643"><ele>19.42857142857143</ele><time>2026-04-09T17:31:07Z</time></trkpt><trkpt lat="43.312092347634604" lon="10.522972758215522"><ele>19.142857142857146</ele><time>2026-04-09T17:31:10Z</time></trkpt><trkpt lat="43.31204989438926" lon="10.523046580957246"><ele>18.857142857142858</ele><time>2026-04-09T17:31:16Z</time></trkpt><trkpt lat="43.311986287775674" lon="10.523070511510781"><ele>18.571428571428573</ele><time>2026-04-09T17:31:19Z</time></trkpt><trkpt lat="43.31191725329106" lon="10.523097201897942"><ele>18.28571428571429</ele><time>2026-04-09T17:31:22Z</time></trkpt><trkpt lat="43.31184472181638" lon="10.523071334099692"><ele>18.0</ele><time>2026-04-09T17:31:25Z</time></trkpt><trkpt lat="43.311781755642386" lon="10.523035927221056"><ele>18.0</ele><time>2026-04-09T17:31:27Z</time></trkpt><trkpt lat="43.31171693868501" lon="10.52304058657665"><ele>18.0</ele><time>2026-04-09T17:31:32Z</time></trkpt><trkpt lat="43.31166992856952" lon="10.523115001204348"><ele>18.0</ele><time>2026-04-09T17:31:39Z</time></trkpt><trkpt lat="43.31159969839843" lon="10.523169115499327"><ele>18.0</ele><time>2026-04-09T17:31:42Z</time></trkpt><trkpt lat="43.311521252511255" lon="10.523157587501194"><ele>18.0</ele><time>2026-04-09T17:31:45Z</time></trkpt></trkseg></trk></gpx>